M I D A S
Marine Information and Data Acquisition System
Tripno 1245 of the Zeeleeuw from 2007-04-16 11:27:28 to 2007-04-16 14:26:46
Back to CruiseResearch ActivitiesStationsMapUnderway DataData graphs

EquipmentUnitsComment
TimeDGPSUTC
LatitudeDGPSDM.mWGS84
LongitudeDGPSDM.mWGS84
TemperatureSBE03/SBE38deg celciusITS90
ConductivitySBE21S/mITS90
SalinitySBE21 Practical Salinity Units
ChlorophylAChelsea fluorimeterg/lCalibrated in Aceton
Missing or incorrect values are displayed as -999
Sea surface data collected by the RV Zeeleeuw from 2007-04-16 08:22:18 to 2007-04-16 14:35:22
                                                                                    Next 1000 lines
Time Latitude Longitude Temperature Conductivity Salinity ChlorophylA
2007-04-16 08:22:28 51°13.6 2°56.096 19.3959 0.092154 0.440437 -2.871232
2007-04-16 08:22:33 51°13.601 2°56.094 19.3217 0.092154 0.440444 -2.871232
2007-04-16 08:22:38 51°13.601 2°56.091 19.3679 0.092154 0.440437 -2.871232
2007-04-16 08:22:43 51°13.602 2°56.087 19.4004 0.092154 0.440437 -2.871232
2007-04-16 08:22:48 51°13.603 2°56.082 19.388 0.092154 0.440444 -2.871232
2007-04-16 08:22:53 51°13.604 2°56.078 19.4079 0.092154 0.440437 -2.871232
2007-04-16 08:22:58 51°13.605 2°56.072 19.3684 0.092154 0.440437 -2.871232
2007-04-16 08:23:03 51°13.606 2°56.065 19.3742 0.092257 0.440953 -2.871232
2007-04-16 08:23:08 51°13.608 2°56.058 19.3868 0.092154 0.440444 -2.871232
2007-04-16 08:23:13 51°13.609 2°56.051 19.3722 0.092154 0.440451 -2.871232
2007-04-16 08:23:18 51°13.611 2°56.044 19.3887 0.092154 0.440451 -2.871232
2007-04-16 08:23:23 51°13.612 2°56.036 19.4077 0.092154 0.440466 -2.871232
2007-04-16 08:23:28 51°13.614 2°56.028 19.4243 0.092154 0.440466 -2.871232
2007-04-16 08:23:33 51°13.615 2°56.02 19.4461 0.092154 0.440466 -2.871232
2007-04-16 08:23:38 51°13.617 2°56.012 19.4594 0.092154 0.440473 -2.871232
2007-04-16 08:23:43 51°13.619 2°56.004 19.4736 0.092154 0.440488 -2.871232
2007-04-16 08:23:48 51°13.621 2°55.995 19.4725 0.092154 0.440488 -2.871232
2007-04-16 08:23:53 51°13.623 2°55.987 19.4681 0.092154 0.440488 -2.871232
2007-04-16 08:23:58 51°13.625 2°55.98 19.461 0.092154 0.440495 -2.871232
2007-04-16 08:24:03 51°13.627 2°55.971 19.4623 0.092154 0.440495 -2.871232
2007-04-16 08:24:08 51°13.629 2°55.963 19.4696 0.092154 0.44051 -2.871232
2007-04-16 08:24:13 51°13.632 2°55.955 19.4689 0.092154 0.44051 -2.871232
2007-04-16 08:24:18 51°13.634 2°55.947 19.4658 0.092154 0.440517 -2.871232
2007-04-16 08:24:23 51°13.637 2°55.939 19.4698 0.092154 0.440524 -2.871232
2007-04-16 08:24:28 51°13.64 2°55.931 19.472 0.092154 0.440524 -2.871232
2007-04-16 08:24:33 51°13.643 2°55.923 19.4757 0.092154 0.440524 -2.871232
2007-04-16 08:24:38 51°13.647 2°55.915 19.4763 0.092051 0.440015 -2.871232
2007-04-16 08:24:43 51°13.65 2°55.907 19.4762 0.092154 0.440524 -2.871232
2007-04-16 08:24:48 51°13.654 2°55.899 19.5235 0.092154 0.440532 -2.871232
2007-04-16 08:24:53 51°13.657 2°55.891 19.5175 0.092154 0.440532 -2.871232
2007-04-16 08:24:58 51°13.661 2°55.883 19.5057 0.092154 0.440532 -2.871232
2007-04-16 08:25:03 51°13.664 2°55.876 19.4987 0.092154 0.440532 -2.871232
2007-04-16 08:25:08 51°13.668 2°55.868 19.4843 0.092154 0.440532 -2.871232
2007-04-16 08:25:13 51°13.671 2°55.86 19.4822 0.092154 0.440539 -2.871232
2007-04-16 08:25:18 51°13.674 2°55.852 19.4797 0.092154 0.440546 -2.871232
2007-04-16 08:25:23 51°13.678 2°55.845 19.4738 0.092154 0.440554 -2.871232
2007-04-16 08:25:28 51°13.681 2°55.838 19.4678 0.092154 0.440554 -2.871232
2007-04-16 08:25:33 51°13.684 2°55.831 19.4668 0.092154 0.440554 -2.871232
2007-04-16 08:25:38 51°13.687 2°55.824 19.4643 0.092154 0.440568 -2.871232
2007-04-16 08:25:43 51°13.69 2°55.817 19.4629 0.092154 0.440568 -2.871232
2007-04-16 08:25:48 51°13.692 2°55.81 19.4626 0.092154 0.440583 -2.871232
2007-04-16 08:25:53 51°13.695 2°55.803 19.4619 0.092154 0.440575 -2.871232
2007-04-16 08:25:58 51°13.697 2°55.797 19.4607 0.092154 0.440575 -2.871232
2007-04-16 08:26:03 51°13.699 2°55.79 19.4582 0.092051 0.440067 -2.871232
2007-04-16 08:26:08 51°13.702 2°55.784 19.4565 0.092154 0.440583 -2.871232
2007-04-16 08:26:13 51°13.704 2°55.778 19.4539 0.092154 0.440583 -2.871232
2007-04-16 08:26:18 51°13.706 2°55.771 19.4521 0.092154 0.440583 -2.871232
2007-04-16 08:26:23 51°13.707 2°55.766 19.4507 0.092154 0.44059 -2.871232
2007-04-16 08:26:28 51°13.709 2°55.76 19.4524 0.092154 0.44059 -2.871232
2007-04-16 08:26:33 51°13.71 2°55.754 19.4528 0.092154 0.440597 -2.871232
2007-04-16 08:26:38 51°13.712 2°55.749 19.4567 0.092154 0.440605 -2.871232
2007-04-16 08:26:43 51°13.713 2°55.745 19.4565 0.092154 0.440605 -2.871232
2007-04-16 08:26:48 51°13.714 2°55.74 19.4584 0.092051 0.440096 -2.871232
2007-04-16 08:26:53 51°13.715 2°55.736 19.4599 0.092051 0.440096 -2.871232
2007-04-16 08:26:58 51°13.716 2°55.733 19.4673 0.092154 0.440605 -2.871232
2007-04-16 08:27:03 51°13.716 2°55.731 19.4976 0.092154 0.440597 -2.871232
2007-04-16 08:27:08 51°13.717 2°55.73 19.5165 0.092154 0.440612 -2.871232
2007-04-16 08:27:13 51°13.717 2°55.731 19.5501 0.092154 0.440619 -2.871232
2007-04-16 08:27:18 51°13.717 2°55.733 19.5597 0.092051 0.440118 -2.871232
2007-04-16 08:27:23 51°13.717 2°55.736 19.5607 0.092051 0.440125 -2.871232
2007-04-16 08:27:28 51°13.717 2°55.739 19.5314 0.092051 0.440125 -2.871232
2007-04-16 08:27:33 51°13.718 2°55.742 19.4892 0.092154 0.440634 -2.871232
2007-04-16 08:27:38 51°13.718 2°55.744 19.3969 0.092051 0.440132 -2.871232
2007-04-16 08:27:43 51°13.718 2°55.746 19.3966 0.092051 0.440132 -2.871232
2007-04-16 08:27:48 51°13.718 2°55.746 19.3525 0.092051 0.440147 -2.871232
2007-04-16 08:27:53 51°13.717 2°55.745 19.3228 0.092154 0.440663 -2.871232
2007-04-16 08:27:58 51°13.717 2°55.743 19.4097 0.092154 0.440663 -2.871232
2007-04-16 08:28:03 51°13.716 2°55.741 19.4264 0.092051 0.440161 -2.871232
2007-04-16 08:28:08 51°13.715 2°55.738 19.4423 0.092154 0.440663 -2.871232
2007-04-16 08:28:13 51°13.714 2°55.735 19.4428 0.092154 0.440656 -2.871232
2007-04-16 08:28:18 51°13.713 2°55.733 19.4387 0.092154 0.440656 -2.871232
2007-04-16 08:28:23 51°13.712 2°55.73 19.4435 0.092154 0.440663 -2.871232
2007-04-16 08:28:28 51°13.712 2°55.729 19.4466 0.092154 0.440663 -2.871232
2007-04-16 08:28:33 51°13.712 2°55.729 19.4479 0.092154 0.44067 -2.871232
2007-04-16 08:28:38 51°13.712 2°55.729 19.4493 0.092154 0.440678 -2.871232
2007-04-16 08:28:43 51°13.712 2°55.729 19.4476 0.092051 0.440154 -2.871232
2007-04-16 08:28:48 51°13.712 2°55.73 19.4452 0.092154 0.440663 -2.871232
2007-04-16 08:28:53 51°13.712 2°55.731 19.4462 0.092154 0.44067 -2.871232
2007-04-16 08:28:58 51°13.713 2°55.732 19.4465 0.092154 0.44067 -2.871232
2007-04-16 08:29:03 51°13.714 2°55.734 19.4451 0.092154 0.440685 -2.871232
2007-04-16 08:29:08 51°13.715 2°55.735 19.4248 0.092154 0.440692 -2.871232
2007-04-16 08:29:13 51°13.715 2°55.736 19.4241 0.092154 0.440692 -2.871232
2007-04-16 08:29:18 51°13.715 2°55.736 19.4197 0.092051 0.440183 -2.871232
2007-04-16 08:29:23 51°13.714 2°55.736 19.3724 0.092154 0.440692 -2.871232
2007-04-16 08:29:28 51°13.713 2°55.735 19.354 0.092154 0.440692 -2.871232
2007-04-16 08:29:33 51°13.712 2°55.734 19.4388 0.092051 0.440198 -2.871232
2007-04-16 08:29:38 51°13.71 2°55.733 19.4103 0.092154 0.440714 -2.871232
2007-04-16 08:29:43 51°13.709 2°55.732 19.4326 0.092051 0.440198 -2.871232
2007-04-16 08:29:48 51°13.707 2°55.731 19.4334 0.092051 0.440205 -2.871232
2007-04-16 08:29:53 51°13.706 2°55.73 19.4396 0.092051 0.440205 -2.871232
2007-04-16 08:29:58 51°13.705 2°55.73 19.435 0.092051 0.440205 -2.871232
2007-04-16 08:30:03 51°13.705 2°55.73 19.4386 0.092154 0.440722 -2.871232
2007-04-16 08:30:08 51°13.704 2°55.73 19.4366 0.092154 0.440722 -2.871232
2007-04-16 08:30:13 51°13.704 2°55.73 19.4375 0.092154 0.440729 -2.871232
2007-04-16 08:30:18 51°13.705 2°55.73 19.4366 0.092154 0.440729 -2.871232
2007-04-16 08:30:23 51°13.705 2°55.731 19.4373 0.092051 0.440227 -2.871232
2007-04-16 08:30:28 51°13.706 2°55.731 19.4363 0.092051 0.440227 -2.871232
2007-04-16 08:30:33 51°13.706 2°55.732 19.4372 0.092051 0.440234 -2.871232
2007-04-16 08:30:38 51°13.707 2°55.732 19.4363 0.092051 0.440234 -2.871232
2007-04-16 08:30:43 51°13.708 2°55.733 19.4377 0.092051 0.440234 -2.871232
2007-04-16 08:30:48 51°13.709 2°55.733 19.4378 0.092051 0.440242 -2.871232
2007-04-16 08:30:53 51°13.711 2°55.733 19.4388 0.092051 0.440256 -2.871232
2007-04-16 08:30:58 51°13.712 2°55.732 19.4395 0.092051 0.440256 -2.871232
2007-04-16 08:31:03 51°13.714 2°55.732 19.4421 0.092051 0.440256 -2.871232
2007-04-16 08:31:08 51°13.716 2°55.731 19.4424 0.092154 0.440765 -2.871232
2007-04-16 08:31:13 51°13.718 2°55.73 19.4445 0.092051 0.440264 -2.871232
2007-04-16 08:31:18 51°13.72 2°55.729 19.4418 0.092051 0.440278 -2.871232
2007-04-16 08:31:23 51°13.722 2°55.727 19.4412 0.092154 0.440795 -2.871232
2007-04-16 08:31:28 51°13.724 2°55.726 19.4404 0.092154 0.440795 -2.871232
2007-04-16 08:31:33 51°13.726 2°55.723 19.4381 0.092051 0.440278 -2.871232
2007-04-16 08:31:38 51°13.729 2°55.721 19.4372 0.092051 0.4403 -2.871232
2007-04-16 08:31:43 51°13.732 2°55.718 19.4265 0.092051 0.4403 -2.871232
2007-04-16 08:31:48 51°13.734 2°55.715 19.4238 0.092051 0.440293 -2.871232
2007-04-16 08:31:53 51°13.737 2°55.711 19.4325 0.092051 0.440293 -2.871232
2007-04-16 08:31:58 51°13.741 2°55.707 19.4311 0.092154 0.440802 -2.871232
2007-04-16 08:32:03 51°13.746 2°55.703 19.4301 0.092051 0.440307 -2.871232
2007-04-16 08:32:08 51°13.751 2°55.698 19.4059 0.092154 0.440817 -2.871232
2007-04-16 08:32:13 51°13.756 2°55.693 19.4035 0.092051 0.4403 -2.871232
2007-04-16 08:32:18 51°13.761 2°55.688 19.3903 0.092051 0.440315 -2.871232
2007-04-16 08:32:23 51°13.767 2°55.683 19.3827 0.092051 0.440329 -2.871232
2007-04-16 08:32:28 51°13.773 2°55.678 19.3712 0.092051 0.440329 -2.871232
2007-04-16 08:32:33 51°13.778 2°55.673 19.371 0.092051 0.440315 -2.871232
2007-04-16 08:32:38 51°13.784 2°55.668 19.3652 0.092154 0.440831 -2.871232
2007-04-16 08:32:43 51°13.79 2°55.663 19.3697 0.092051 0.440344 -2.871232
2007-04-16 08:32:48 51°13.796 2°55.658 19.3705 0.092154 0.440846 -2.871232
2007-04-16 08:32:53 51°13.801 2°55.653 19.3722 0.092051 0.440344 -2.871232
2007-04-16 08:32:58 51°13.807 2°55.648 19.3708 0.092051 0.440344 -2.871232
2007-04-16 08:33:03 51°13.813 2°55.643 19.3735 0.092051 0.440359 -2.871232
2007-04-16 08:33:08 51°13.819 2°55.638 19.3806 0.092051 0.440359 -2.871232
2007-04-16 08:33:13 51°13.825 2°55.633 19.3839 0.092051 0.440359 -2.871232
2007-04-16 08:33:18 51°13.831 2°55.628 19.3876 0.092051 0.440373 -2.871232
2007-04-16 08:33:23 51°13.837 2°55.622 19.3864 0.092051 0.440381 -2.871232
2007-04-16 08:33:28 51°13.842 2°55.617 19.3893 0.092051 0.440381 -2.871232
2007-04-16 08:33:33 51°13.848 2°55.612 19.3862 0.092051 0.440381 -2.871232
2007-04-16 08:33:38 51°13.854 2°55.607 19.3857 0.092051 0.440395 -2.871232
2007-04-16 08:33:43 51°13.861 2°55.602 19.3849 0.092051 0.440402 -2.871232
2007-04-16 08:33:48 51°13.867 2°55.597 19.3889 0.092154 0.440904 -2.871232
2007-04-16 08:33:53 51°13.872 2°55.591 19.3915 0.092051 0.440417 -2.871232
2007-04-16 08:33:58 51°13.878 2°55.586 19.3942 0.092051 0.440417 -2.871232
2007-04-16 08:34:03 51°13.884 2°55.581 19.3955 0.092051 0.440417 -2.871232
2007-04-16 08:34:08 51°13.89 2°55.576 19.3954 0.092051 0.44041 -2.871232
2007-04-16 08:34:13 51°13.896 2°55.571 19.396 0.092051 0.440424 -2.871232
2007-04-16 08:34:18 51°13.902 2°55.566 19.391 0.092051 0.440424 -2.871232
2007-04-16 08:34:23 51°13.907 2°55.561 19.3907 0.092051 0.440417 -2.871232
2007-04-16 08:34:28 51°13.913 2°55.556 19.3804 0.092051 0.440417 -2.871232
2007-04-16 08:34:33 51°13.918 2°55.552 19.3803 0.092051 0.440432 -2.871232
2007-04-16 08:34:38 51°13.924 2°55.548 19.3822 0.092051 0.440432 -2.871232
2007-04-16 08:34:43 51°13.93 2°55.545 19.3875 0.092154 0.440934 -2.871232
2007-04-16 08:34:48 51°13.935 2°55.541 19.3926 0.092051 0.440446 -2.871232
2007-04-16 08:34:53 51°13.94 2°55.536 19.4011 0.092051 0.440439 -2.871232
2007-04-16 08:34:58 51°13.944 2°55.532 19.406 0.092051 0.440439 -2.871232
2007-04-16 08:35:03 51°13.948 2°55.527 19.4164 0.092051 0.440446 -2.871232
2007-04-16 08:35:08 51°13.953 2°55.522 19.4134 0.092051 0.440468 -2.871232
2007-04-16 08:35:13 51°13.957 2°55.517 19.421 0.092051 0.440461 -2.871232
2007-04-16 08:35:18 51°13.961 2°55.513 19.4201 0.092051 0.440476 -2.871232
2007-04-16 08:35:23 51°13.965 2°55.508 19.4205 0.091948 0.439966 -2.871232
2007-04-16 08:35:28 51°13.969 2°55.503 19.4159 0.091948 0.439966 -2.871232
2007-04-16 08:35:33 51°13.972 2°55.498 19.4143 0.092051 0.440476 -2.871232
2007-04-16 08:35:38 51°13.976 2°55.492 19.4108 0.092051 0.440483 -2.871232
2007-04-16 08:35:43 51°13.979 2°55.487 19.4052 0.091948 0.439966 -2.871232
2007-04-16 08:35:48 51°13.982 2°55.482 19.4021 0.092051 0.44049 -2.871232
2007-04-16 08:35:53 51°13.986 2°55.478 19.3998 0.092051 0.440483 -2.871232
2007-04-16 08:35:58 51°13.989 2°55.474 19.398 0.092051 0.440483 -2.871232
2007-04-16 08:36:03 51°13.992 2°55.47 19.3927 0.092051 0.44049 -2.871232
2007-04-16 08:36:08 51°13.994 2°55.467 19.3925 0.092051 0.440498 -2.871232
2007-04-16 08:36:13 51°13.996 2°55.463 19.3933 0.092051 0.44049 -2.871232
2007-04-16 08:36:18 51°13.999 2°55.461 19.3858 0.092051 0.440505 -2.871232
2007-04-16 08:36:23 51°14 2°55.459 19.3895 0.092051 0.440505 -2.871232
2007-04-16 08:36:28 51°14.002 2°55.457 19.4062 0.092051 0.440505 -2.871232
2007-04-16 08:36:33 51°14.002 2°55.456 19.4684 0.092051 0.440512 -2.871232
2007-04-16 08:36:38 51°14.003 2°55.455 19.3863 0.092051 0.440512 -2.871232
2007-04-16 08:36:43 51°14.003 2°55.454 19.4229 0.092051 0.440512 -2.871232
2007-04-16 08:36:48 51°14.003 2°55.453 19.4887 0.092051 0.440527 -2.871232
2007-04-16 08:36:53 51°14.003 2°55.452 19.4907 0.092051 0.440512 -2.871232
2007-04-16 08:36:58 51°14.003 2°55.452 19.4418 0.092051 0.440512 -2.871232
2007-04-16 08:37:03 51°14.003 2°55.452 19.4356 0.092051 0.440527 -2.871232
2007-04-16 08:37:08 51°14.003 2°55.452 19.4362 0.092051 0.440519 -2.871232
2007-04-16 08:37:13 51°14.003 2°55.452 19.4436 0.092051 0.440534 -2.871232
2007-04-16 08:37:18 51°14.003 2°55.453 19.4445 0.091948 0.440032 -2.871232
2007-04-16 08:37:23 51°14.004 2°55.454 19.4632 0.091948 0.440032 -2.871232
2007-04-16 08:37:28 51°14.005 2°55.455 19.4568 0.092051 0.440549 -2.871232
2007-04-16 08:37:33 51°14.005 2°55.456 19.4535 0.092051 0.440556 -2.871232
2007-04-16 08:37:38 51°14.005 2°55.456 19.4542 0.092051 0.440549 -2.871232
2007-04-16 08:37:43 51°14.005 2°55.455 19.4586 0.092051 0.440563 -2.871232
2007-04-16 08:37:48 51°14.005 2°55.455 19.4632 0.091948 0.440047 -2.871232
2007-04-16 08:37:53 51°14.005 2°55.455 19.4652 0.092154 0.44108 -2.871232
2007-04-16 08:37:58 51°14.005 2°55.454 19.4451 0.092154 0.44108 -2.871232
2007-04-16 08:38:03 51°14.005 2°55.454 19.4474 0.092051 0.440563 -2.871232
2007-04-16 08:38:08 51°14.005 2°55.453 19.4477 0.091948 0.440069 -2.871232
2007-04-16 08:38:13 51°14.005 2°55.453 19.4579 0.092051 0.440578 -2.871232
2007-04-16 08:38:18 51°14.005 2°55.453 19.4507 0.091948 0.440076 -2.871232
2007-04-16 08:38:23 51°14.005 2°55.453 19.4458 0.091948 0.440061 -2.871232
2007-04-16 08:38:28 51°14.004 2°55.453 19.4373 0.091948 0.440061 -2.871232
2007-04-16 08:38:33 51°14.004 2°55.453 19.4357 0.092051 0.440585 -2.871232
2007-04-16 08:38:38 51°14.004 2°55.453 19.4353 0.091948 0.440069 -2.871232
2007-04-16 08:38:43 51°14.004 2°55.453 19.4365 0.092051 0.440593 -2.871232
2007-04-16 08:38:48 51°14.004 2°55.453 19.438 0.091948 0.440076 -2.871232
2007-04-16 08:38:53 51°14.004 2°55.452 19.4363 0.092051 0.4406 -2.871232
2007-04-16 08:38:58 51°14.004 2°55.452 19.4348 0.092051 0.4406 -2.871232
2007-04-16 08:39:03 51°14.004 2°55.452 19.4944 0.091948 0.440083 -2.871232
2007-04-16 08:39:08 51°14.004 2°55.452 19.4985 0.091948 0.440098 -2.871232
2007-04-16 08:39:13 51°14.004 2°55.451 19.4245 0.092051 0.4406 -2.871232
2007-04-16 08:39:18 51°14.003 2°55.451 19.4483 0.091948 0.440105 -2.871232
2007-04-16 08:39:23 51°14.003 2°55.451 19.4524 0.092051 0.440607 -2.871232
2007-04-16 08:39:28 51°14.003 2°55.451 19.4539 0.092051 0.440607 -2.871232
2007-04-16 08:39:33 51°14.003 2°55.451 19.458 0.092051 0.440622 -2.871232
2007-04-16 08:39:38 51°14.003 2°55.451 19.4607 0.091948 0.440105 -2.871232
2007-04-16 08:39:43 51°14.004 2°55.452 19.4597 0.092051 0.440629 -2.871232
2007-04-16 08:39:48 51°14.004 2°55.452 19.4589 0.091948 0.44012 -2.871232
2007-04-16 08:39:53 51°14.005 2°55.453 19.4584 0.092051 0.440636 -2.871232
2007-04-16 08:39:58 51°14.005 2°55.454 19.4564 0.092051 0.440636 -2.871232
2007-04-16 08:40:03 51°14.005 2°55.453 19.4508 0.092051 0.440629 -2.871232
2007-04-16 08:40:08 51°14.005 2°55.452 19.4489 0.092051 0.440644 -2.871232
2007-04-16 08:40:13 51°14.004 2°55.452 19.4402 0.092051 0.440636 -2.871232
2007-04-16 08:40:18 51°14.004 2°55.451 19.4362 0.091948 0.440127 -2.871232
2007-04-16 08:40:23 51°14.004 2°55.451 19.4207 0.092051 0.440644 -2.871232
2007-04-16 08:40:28 51°14.003 2°55.45 19.4258 0.092051 0.440644 -2.871232
2007-04-16 08:40:33 51°14.003 2°55.45 19.4276 0.092051 0.440651 -2.871232
2007-04-16 08:40:38 51°14.003 2°55.45 19.4299 0.092051 0.440658 -2.871232
2007-04-16 08:40:43 51°14.003 2°55.45 19.438 0.092051 0.440651 -2.871232
2007-04-16 08:40:48 51°14.003 2°55.45 19.4251 0.092051 0.440666 -2.871232
2007-04-16 08:40:53 51°14.003 2°55.45 19.4181 0.092051 0.440658 -2.871232
2007-04-16 08:40:58 51°14.004 2°55.451 19.4168 0.092051 0.440658 -2.871232
2007-04-16 08:41:03 51°14.005 2°55.452 19.4139 0.092051 0.440666 -2.871232
2007-04-16 08:41:08 51°14.005 2°55.452 19.4147 0.091948 0.440156 -2.871232
2007-04-16 08:41:13 51°14.005 2°55.452 19.4204 0.092051 0.440673 -2.871232
2007-04-16 08:41:18 51°14.005 2°55.452 19.4252 0.092051 0.44068 -2.871232
2007-04-16 08:41:23 51°14.005 2°55.452 19.4299 0.091948 0.440156 -2.871232
2007-04-16 08:41:28 51°14.004 2°55.452 19.4114 0.091948 0.440156 -2.871232
2007-04-16 08:41:33 51°14.004 2°55.452 19.4008 0.092051 0.440688 -2.871232
2007-04-16 08:41:38 51°14.004 2°55.452 19.4499 0.091948 0.440171 -2.871232
2007-04-16 08:41:43 51°14.004 2°55.452 19.4073 0.092051 0.44068 -2.871232
2007-04-16 08:41:48 51°14.004 2°55.452 19.4024 0.091948 0.440185 -2.871232
2007-04-16 08:41:53 51°14.005 2°55.452 19.4029 0.092051 0.440688 -2.871232
2007-04-16 08:41:58 51°14.005 2°55.452 19.412 0.092051 0.440688 -2.871232
2007-04-16 08:42:03 51°14.005 2°55.453 19.4152 0.091948 0.440193 -2.871232
2007-04-16 08:42:08 51°14.005 2°55.453 19.419 0.091948 0.440193 -2.871232
2007-04-16 08:42:13 51°14.004 2°55.452 19.4271 0.091948 0.4402 -2.871232
2007-04-16 08:42:18 51°14.004 2°55.452 19.4371 0.092051 0.44071 -2.871232
2007-04-16 08:42:23 51°14.004 2°55.452 19.4559 0.092051 0.440702 -2.871232
2007-04-16 08:42:28 51°14.004 2°55.452 19.451 0.092051 0.440702 -2.871232
2007-04-16 08:42:33 51°14.004 2°55.452 19.4221 0.091948 0.440207 -2.871232
2007-04-16 08:42:38 51°14.004 2°55.452 19.4224 0.092051 0.44071 -2.871232
2007-04-16 08:42:43 51°14.004 2°55.452 19.4275 0.091948 0.4402 -2.871232
2007-04-16 08:42:48 51°14.004 2°55.452 19.428 0.092051 0.440724 -2.871232
2007-04-16 08:42:53 51°14.004 2°55.452 19.4269 0.091948 0.440207 -2.871232
2007-04-16 08:42:58 51°14.003 2°55.451 19.4431 0.091948 0.440207 -2.871232
2007-04-16 08:43:03 51°14.003 2°55.45 19.4554 0.091948 0.440215 -2.871232
2007-04-16 08:43:08 51°14.003 2°55.451 19.4529 0.091948 0.440222 -2.871232
2007-04-16 08:43:13 51°14.004 2°55.451 19.4476 0.091948 0.440222 -2.871232
2007-04-16 08:43:18 51°14.004 2°55.452 19.4468 0.091948 0.440229 -2.871232
2007-04-16 08:43:23 51°14.004 2°55.451 19.4434 0.092051 0.440746 -2.871232
2007-04-16 08:43:28 51°14.003 2°55.45 19.4439 0.092051 0.440746 -2.871232
2007-04-16 08:43:33 51°14.002 2°55.449 19.4388 0.092051 0.440739 -2.871232
2007-04-16 08:43:38 51°14.002 2°55.449 19.4382 0.091948 0.440237 -2.871232
2007-04-16 08:43:43 51°14.002 2°55.449 19.4362 0.091948 0.440244 -2.871232
2007-04-16 08:43:48 51°14.002 2°55.448 19.4356 0.092051 0.440746 -2.871232
2007-04-16 08:43:53 51°14.002 2°55.449 19.4352 0.091948 0.440244 -2.871232
2007-04-16 08:43:58 51°14.003 2°55.45 19.4323 0.091948 0.440244 -2.871232
2007-04-16 08:44:03 51°14.004 2°55.451 19.4328 0.091948 0.440251 -2.871232
2007-04-16 08:44:08 51°14.004 2°55.451 19.4328 0.092051 0.440761 -2.871232
2007-04-16 08:44:13 51°14.004 2°55.451 19.4382 0.091948 0.440259 -2.871232
2007-04-16 08:44:18 51°14.004 2°55.451 19.4408 0.091948 0.440266 -2.871232
2007-04-16 08:44:23 51°14.004 2°55.451 19.4453 0.091948 0.440259 -2.871232
2007-04-16 08:44:28 51°14.004 2°55.451 19.44 0.091948 0.440259 -2.871232
2007-04-16 08:44:33 51°14.004 2°55.451 19.438 0.091948 0.440266 -2.871232
2007-04-16 08:44:38 51°14.004 2°55.451 19.4365 0.092051 0.440783 -2.871232
2007-04-16 08:44:43 51°14.004 2°55.451 19.4432 0.091948 0.440273 -2.871232
2007-04-16 08:44:48 51°14.004 2°55.45 19.4473 0.091948 0.440273 -2.871232
2007-04-16 08:44:53 51°14.003 2°55.45 19.4482 0.091948 0.440281 -2.871232
2007-04-16 08:44:58 51°14.003 2°55.449 19.4482 0.091948 0.440281 -2.871232
2007-04-16 08:45:03 51°14.003 2°55.449 19.4488 0.091948 0.440281 -2.871232
2007-04-16 08:45:08 51°14.003 2°55.449 19.4462 0.092051 0.44079 -2.871232
2007-04-16 08:45:13 51°14.003 2°55.449 19.4444 0.091948 0.440295 -2.871232
2007-04-16 08:45:18 51°14.003 2°55.449 19.4453 0.091948 0.440288 -2.871232
2007-04-16 08:45:23 51°14.002 2°55.448 19.4451 0.091948 0.440288 -2.871232
2007-04-16 08:45:28 51°14.002 2°55.448 19.444 0.091948 0.440288 -2.871232
2007-04-16 08:45:33 51°14.002 2°55.448 19.4418 0.091948 0.440295 -2.871232
2007-04-16 08:45:38 51°14.002 2°55.448 19.4391 0.091948 0.440302 -2.871232
2007-04-16 08:45:43 51°14.003 2°55.449 19.4372 0.091948 0.440302 -2.871232
2007-04-16 08:45:48 51°14.003 2°55.449 19.4383 0.091948 0.440302 -2.871232
2007-04-16 08:45:53 51°14.002 2°55.449 19.4379 0.091948 0.440302 -2.871232
2007-04-16 08:45:58 51°14.003 2°55.449 19.4331 0.091948 0.440302 -2.871232
2007-04-16 08:46:03 51°14.003 2°55.449 19.4318 0.092051 0.440827 -2.871232
2007-04-16 08:46:08 51°14.003 2°55.449 19.4382 0.091948 0.440317 -2.871232
2007-04-16 08:46:13 51°14.003 2°55.45 19.4429 0.092051 0.440827 -2.871232
2007-04-16 08:46:18 51°14.003 2°55.45 19.4442 0.091948 0.440324 -2.871232
2007-04-16 08:46:23 51°14.003 2°55.45 19.4433 0.092051 0.440834 -2.871232
2007-04-16 08:46:28 51°14.004 2°55.451 19.4474 0.092051 0.440834 -2.871232
2007-04-16 08:46:33 51°14.004 2°55.452 19.4487 0.092051 0.440834 -2.871232
2007-04-16 08:46:38 51°14.004 2°55.452 19.4453 0.091948 0.440324 -2.871232
2007-04-16 08:46:43 51°14.005 2°55.453 19.4443 0.091948 0.440332 -2.871232
2007-04-16 08:46:48 51°14.005 2°55.452 19.4445 0.091948 0.440339 -2.871232
2007-04-16 08:46:53 51°14.004 2°55.452 19.4475 0.091948 0.440346 -2.871232
2007-04-16 08:46:58 51°14.004 2°55.451 19.449 0.091948 0.440346 -2.871232
2007-04-16 08:47:03 51°14.003 2°55.451 19.4467 0.091948 0.440339 -2.871232
2007-04-16 08:47:08 51°14.003 2°55.45 19.4367 0.091948 0.440339 -2.871232
2007-04-16 08:47:13 51°14.003 2°55.45 19.4307 0.091948 0.440354 -2.871232
2007-04-16 08:47:18 51°14.003 2°55.451 19.436 0.091948 0.440361 -2.871232
2007-04-16 08:47:23 51°14.004 2°55.452 19.4592 0.091948 0.440361 -2.871232
2007-04-16 08:47:28 51°14.004 2°55.452 19.4576 0.091948 0.440361 -2.871232
2007-04-16 08:47:33 51°14.004 2°55.452 19.4647 0.091948 0.440354 -2.871232
2007-04-16 08:47:38 51°14.004 2°55.452 19.4483 0.091948 0.440361 -2.871232
2007-04-16 08:47:43 51°14.004 2°55.452 19.4513 0.091948 0.440368 -2.871232
2007-04-16 08:47:48 51°14.004 2°55.452 19.4514 0.091948 0.440376 -2.871232
2007-04-16 08:47:53 51°14.004 2°55.452 19.4593 0.092051 0.440885 -2.871232
2007-04-16 08:47:58 51°14.004 2°55.452 19.4627 0.092051 0.440885 -2.871232
2007-04-16 08:48:03 51°14.004 2°55.452 19.4624 0.091948 0.440376 -2.871232
2007-04-16 08:48:08 51°14.004 2°55.451 19.4633 0.091948 0.440376 -2.871232
2007-04-16 08:48:13 51°14.004 2°55.451 19.4645 0.091948 0.440383 -2.871232
2007-04-16 08:48:18 51°14.004 2°55.451 19.4626 0.092051 0.4409 -2.871232
2007-04-16 08:48:23 51°14.003 2°55.451 19.461 0.091845 0.43988 -2.871232
2007-04-16 08:48:28 51°14.003 2°55.45 19.456 0.091845 0.43988 -2.871232
2007-04-16 08:48:33 51°14.003 2°55.45 19.4568 0.091948 0.44039 -2.871232
2007-04-16 08:48:38 51°14.003 2°55.451 19.4601 0.091948 0.44039 -2.871232
2007-04-16 08:48:43 51°14.003 2°55.451 19.4586 0.091948 0.44039 -2.871232
2007-04-16 08:48:48 51°14.003 2°55.451 19.459 0.091948 0.440405 -2.871232
2007-04-16 08:48:53 51°14.003 2°55.451 19.4614 0.091948 0.440412 -2.871232
2007-04-16 08:48:58 51°14.003 2°55.451 19.4775 0.091948 0.440412 -2.871232
2007-04-16 08:49:03 51°14.003 2°55.451 19.466 0.091948 0.440405 -2.871232
2007-04-16 08:49:08 51°14.003 2°55.45 19.4961 0.091948 0.440412 -2.871232
2007-04-16 08:49:13 51°14.003 2°55.45 19.475 0.091948 0.440412 -2.871232
2007-04-16 08:49:18 51°14.003 2°55.45 19.472 0.091948 0.440412 -2.871232
2007-04-16 08:49:23 51°14.003 2°55.45 19.4666 0.091948 0.44042 -2.871232
2007-04-16 08:49:28 51°14.003 2°55.45 19.4615 0.091948 0.44042 -2.871232
2007-04-16 08:49:33 51°14.003 2°55.45 19.4661 0.091948 0.440427 -2.871232
2007-04-16 08:49:38 51°14.003 2°55.45 19.4659 0.091948 0.440434 -2.871232
2007-04-16 08:49:43 51°14.003 2°55.45 19.467 0.091948 0.440434 -2.871232
2007-04-16 08:49:48 51°14.003 2°55.45 19.4695 0.091948 0.440434 -2.871232
2007-04-16 08:49:53 51°14.003 2°55.45 19.4909 0.091948 0.440434 -2.871232
2007-04-16 08:49:58 51°14.003 2°55.45 19.4887 0.091948 0.440434 -2.871232
2007-04-16 08:50:03 51°14.003 2°55.45 19.4939 0.091948 0.440434 -2.871232
2007-04-16 08:50:08 51°14.003 2°55.45 19.4825 0.091948 0.440442 -2.871232
2007-04-16 08:50:13 51°14.003 2°55.451 19.468 0.092051 0.440951 -2.871232
2007-04-16 08:50:18 51°14.003 2°55.451 19.4701 0.091948 0.440449 -2.871232
2007-04-16 08:50:23 51°14.003 2°55.451 19.4709 0.091948 0.440456 -2.871232
2007-04-16 08:50:28 51°14.003 2°55.451 19.4755 0.091948 0.440456 -2.871232
2007-04-16 08:50:33 51°14.003 2°55.451 19.4774 0.091948 0.440463 -2.871232
2007-04-16 08:50:38 51°14.003 2°55.451 19.4772 0.091948 0.440463 -2.871232
2007-04-16 08:50:43 51°14.003 2°55.451 19.4778 0.092051 0.440973 -2.871232
2007-04-16 08:50:48 51°14.003 2°55.451 19.4814 0.091845 0.439954 -2.871232
2007-04-16 08:50:53 51°14.003 2°55.451 19.4677 0.091948 0.440463 -2.871232
2007-04-16 08:50:58 51°14.003 2°55.451 19.4823 0.091948 0.440463 -2.871232
2007-04-16 08:51:03 51°14.003 2°55.451 19.4872 0.091948 0.440471 -2.871232
2007-04-16 08:51:08 51°14.003 2°55.451 19.4689 0.091948 0.440471 -2.871232
2007-04-16 08:51:13 51°14.003 2°55.451 19.455 0.091948 0.440471 -2.871232
2007-04-16 08:51:18 51°14.002 2°55.451 19.5039 0.091948 0.440478 -2.871232
2007-04-16 08:51:23 51°14.003 2°55.451 19.5109 0.091948 0.440478 -2.871232
2007-04-16 08:51:28 51°14.003 2°55.45 19.4916 0.091948 0.440478 -2.871232
2007-04-16 08:51:33 51°14.003 2°55.451 19.4598 0.091948 0.440485 -2.871232
2007-04-16 08:51:38 51°14.003 2°55.451 19.4674 0.091948 0.440493 -2.871232
2007-04-16 08:51:43 51°14.003 2°55.451 19.4725 0.091948 0.440493 -2.871232
2007-04-16 08:51:48 51°14.003 2°55.451 19.4808 0.091948 0.4405 -2.871232
2007-04-16 08:51:53 51°14.003 2°55.451 19.4793 0.091948 0.4405 -2.871232
2007-04-16 08:51:58 51°14.003 2°55.451 19.4753 0.091948 0.4405 -2.871232
2007-04-16 08:52:03 51°14.003 2°55.451 19.4726 0.091948 0.4405 -2.871232
2007-04-16 08:52:08 51°14.003 2°55.451 19.4764 0.091948 0.440507 -2.871232
2007-04-16 08:52:13 51°14.003 2°55.451 19.4785 0.091845 0.439997 -2.871232
2007-04-16 08:52:18 51°14.003 2°55.451 19.4872 0.091948 0.440507 -2.871232
2007-04-16 08:52:23 51°14.003 2°55.451 19.4859 0.091948 0.440515 -2.871232
2007-04-16 08:52:28 51°14.003 2°55.451 19.4872 0.091948 0.440515 -2.871232
2007-04-16 08:52:33 51°14.003 2°55.451 19.4775 0.091948 0.440515 -2.871232
2007-04-16 08:52:38 51°14.003 2°55.451 19.4798 0.091948 0.440515 -2.871232
2007-04-16 08:52:43 51°14.003 2°55.451 19.4836 0.091948 0.440515 -2.871232
2007-04-16 08:52:48 51°14.003 2°55.451 19.4869 0.091948 0.440515 -2.871232
2007-04-16 08:52:53 51°14.003 2°55.451 19.4926 0.091948 0.440522 -2.871232
2007-04-16 08:52:58 51°14.003 2°55.451 19.4987 0.091948 0.440522 -2.871232
2007-04-16 08:53:03 51°14.003 2°55.451 19.4994 0.091948 0.440522 -2.871232
2007-04-16 08:53:08 51°14.003 2°55.451 19.4973 0.091948 0.440529 -2.871232
2007-04-16 08:53:13 51°14.003 2°55.451 19.5007 0.091948 0.440529 -2.871232
2007-04-16 08:53:18 51°14.003 2°55.451 19.5016 0.091948 0.440537 -2.871232
2007-04-16 08:53:23 51°14.003 2°55.451 19.5069 0.091948 0.440537 -2.871232
2007-04-16 08:53:28 51°14.003 2°55.451 19.5132 0.091948 0.440537 -2.871232
2007-04-16 08:53:33 51°14.003 2°55.451 19.5062 0.091948 0.440537 -2.871232
2007-04-16 08:53:38 51°14.003 2°55.451 19.4958 0.091845 0.440034 -2.871232
2007-04-16 08:53:43 51°14.003 2°55.451 19.4926 0.091948 0.440551 -2.871232
2007-04-16 08:53:48 51°14.003 2°55.451 19.4927 0.091948 0.440551 -2.871232
2007-04-16 08:53:53 51°14.003 2°55.451 19.4957 0.091948 0.440551 -2.871232
2007-04-16 08:53:58 51°14.003 2°55.451 19.499 0.091948 0.440551 -2.871232
2007-04-16 08:54:03 51°14.003 2°55.451 19.4954 0.091845 0.440041 -2.871232
2007-04-16 08:54:08 51°14.004 2°55.451 19.4999 0.091948 0.440559 -2.871232
2007-04-16 08:54:13 51°14.003 2°55.451 19.4982 0.091948 0.440566 -2.871232
2007-04-16 08:54:18 51°14.004 2°55.451 19.4986 0.091948 0.440566 -2.871232
2007-04-16 08:54:23 51°14.004 2°55.451 19.498 0.091948 0.440573 -2.871232
2007-04-16 08:54:28 51°14.004 2°55.451 19.5009 0.091948 0.440573 -2.871232
2007-04-16 08:54:33 51°14.004 2°55.451 19.4984 0.091948 0.440573 -2.871232
2007-04-16 08:54:38 51°14.004 2°55.451 19.4986 0.091845 0.440063 -2.871232
2007-04-16 08:54:43 51°14.003 2°55.451 19.4995 0.091845 0.440071 -2.871232
2007-04-16 08:54:48 51°14.003 2°55.451 19.4991 0.091948 0.440588 -2.871232
2007-04-16 08:54:53 51°14.003 2°55.451 19.5006 0.091948 0.440588 -2.871232
2007-04-16 08:54:58 51°14.003 2°55.451 19.5026 0.091948 0.440588 -2.871232
2007-04-16 08:55:03 51°14.003 2°55.451 19.5088 0.091948 0.440588 -2.871232
2007-04-16 08:55:08 51°14.003 2°55.451 19.5085 0.091948 0.440595 -2.871232
2007-04-16 08:55:13 51°14.004 2°55.451 19.5047 0.091948 0.440603 -2.871232
2007-04-16 08:55:18 51°14.004 2°55.451 19.5063 0.091948 0.440603 -2.871232
2007-04-16 08:55:23 51°14.004 2°55.451 19.5085 0.091948 0.440603 -2.871232
2007-04-16 08:55:28 51°14.004 2°55.451 19.5039 0.091948 0.440603 -2.871232
2007-04-16 08:55:33 51°14.004 2°55.451 19.4984 0.091948 0.440603 -2.871232
2007-04-16 08:55:38 51°14.004 2°55.451 19.4999 0.091948 0.440603 -2.871232
2007-04-16 08:55:43 51°14.004 2°55.451 19.5001 0.091845 0.440093 -2.871232
2007-04-16 08:55:48 51°14.004 2°55.451 19.5045 0.091845 0.4401 -2.871232
2007-04-16 08:55:53 51°14.004 2°55.451 19.5114 0.091948 0.44061 -2.871232
2007-04-16 08:55:58 51°14.004 2°55.451 19.511 0.091948 0.44061 -2.871232
2007-04-16 08:56:03 51°14.004 2°55.451 19.5034 0.091948 0.440617 -2.871232
2007-04-16 08:56:08 51°14.004 2°55.451 19.5083 0.091948 0.440617 -2.871232
2007-04-16 08:56:13 51°14.004 2°55.451 19.5125 0.091845 0.440115 -2.871232
2007-04-16 08:56:18 51°14.004 2°55.451 19.524 0.091948 0.440632 -2.871232
2007-04-16 08:56:23 51°14.004 2°55.451 19.5263 0.091948 0.440632 -2.871232
2007-04-16 08:56:28 51°14.004 2°55.451 19.5255 0.091948 0.440632 -2.871232
2007-04-16 08:56:33 51°14.004 2°55.451 19.5245 0.091845 0.440122 -2.871232
2007-04-16 08:56:38 51°14.004 2°55.451 19.5261 0.091845 0.440129 -2.871232
2007-04-16 08:56:43 51°14.004 2°55.451 19.5262 0.091948 0.440639 -2.871232
2007-04-16 08:56:48 51°14.004 2°55.451 19.5295 0.091948 0.440639 -2.871232
2007-04-16 08:56:53 51°14.004 2°55.451 19.5254 0.091948 0.440639 -2.871232
2007-04-16 08:56:58 51°14.004 2°55.451 19.5282 0.091948 0.440639 -2.871232
2007-04-16 08:57:03 51°14.004 2°55.451 19.5313 0.091948 0.440639 -2.871232
2007-04-16 08:57:08 51°14.004 2°55.451 19.5332 0.091948 0.440654 -2.871232
2007-04-16 08:57:13 51°14.004 2°55.451 19.5335 0.091948 0.440654 -2.871232
2007-04-16 08:57:18 51°14.004 2°55.451 19.5327 0.091948 0.440661 -2.871232
2007-04-16 08:57:23 51°14.004 2°55.451 19.5312 0.091948 0.440669 -2.871232
2007-04-16 08:57:28 51°14.004 2°55.451 19.53 0.091948 0.440669 -2.871232
2007-04-16 08:57:33 51°14.004 2°55.451 19.5325 0.091845 0.440151 -2.871232
2007-04-16 08:57:38 51°14.004 2°55.452 19.531 0.091948 0.440661 -2.871232
2007-04-16 08:57:43 51°14.004 2°55.452 19.5342 0.091845 0.440151 -2.871232
2007-04-16 08:57:48 51°14.004 2°55.452 19.537 0.091845 0.440158 -2.871232
2007-04-16 08:57:53 51°14.004 2°55.452 19.5282 0.091845 0.440166 -2.871232
2007-04-16 08:57:58 51°14.004 2°55.452 19.528 0.091845 0.440166 -2.871232
2007-04-16 08:58:03 51°14.004 2°55.451 19.5323 0.091845 0.440166 -2.871232
2007-04-16 08:58:08 51°14.004 2°55.451 19.531 0.091845 0.440173 -2.871232
2007-04-16 08:58:13 51°14.004 2°55.451 19.5353 0.091948 0.440683 -2.871232
2007-04-16 08:58:18 51°14.004 2°55.451 19.5438 0.091948 0.440683 -2.871232
2007-04-16 08:58:23 51°14.004 2°55.451 19.5493 0.091845 0.440173 -2.871232
2007-04-16 08:58:28 51°14.004 2°55.452 19.5584 0.091845 0.440173 -2.871232
2007-04-16 08:58:33 51°14.004 2°55.452 19.5581 0.091845 0.44018 -2.871232
2007-04-16 08:58:38 51°14.004 2°55.452 19.5571 0.091948 0.440698 -2.871232
2007-04-16 08:58:43 51°14.004 2°55.452 19.5534 0.091845 0.440188 -2.871232
2007-04-16 08:58:48 51°14.004 2°55.452 19.5558 0.091948 0.440698 -2.871232
2007-04-16 08:58:53 51°14.004 2°55.452 19.554 0.091845 0.440188 -2.871232
2007-04-16 08:58:58 51°14.004 2°55.452 19.5515 0.091845 0.440188 -2.871232
2007-04-16 08:59:03 51°14.004 2°55.452 19.5404 0.091948 0.440705 -2.871232
2007-04-16 08:59:08 51°14.004 2°55.451 19.5435 0.091948 0.440713 -2.871232
2007-04-16 08:59:13 51°14.004 2°55.451 19.5452 0.091948 0.440713 -2.871232
2007-04-16 08:59:18 51°14.004 2°55.451 19.5474 0.091845 0.440202 -2.871232
2007-04-16 08:59:23 51°14.004 2°55.451 19.5482 0.091845 0.44021 -2.871232
2007-04-16 08:59:28 51°14.004 2°55.451 19.5503 0.091845 0.44021 -2.871232
2007-04-16 08:59:33 51°14.004 2°55.451 19.5465 0.091845 0.44021 -2.871232
2007-04-16 08:59:38 51°14.004 2°55.451 19.5476 0.091845 0.44021 -2.871232
2007-04-16 08:59:43 51°14.004 2°55.451 19.5536 0.091948 0.440727 -2.871232
2007-04-16 08:59:48 51°14.004 2°55.451 19.5506 0.091845 0.440224 -2.871232
2007-04-16 08:59:53 51°14.004 2°55.451 19.5507 0.091845 0.440224 -2.871232
2007-04-16 08:59:58 51°14.004 2°55.451 19.552 0.091845 0.440224 -2.871232
2007-04-16 09:00:03 51°14.004 2°55.45 19.5527 0.091845 0.440224 -2.871232
2007-04-16 09:00:08 51°14.004 2°55.45 19.5534 0.091948 0.440735 -2.871232
2007-04-16 09:00:13 51°14.004 2°55.45 19.5526 0.091845 0.440232 -2.871232
2007-04-16 09:00:18 51°14.004 2°55.45 19.5533 0.091948 0.440749 -2.871232
2007-04-16 09:00:23 51°14.004 2°55.45 19.5532 0.091948 0.440742 -2.871232
2007-04-16 09:00:28 51°14.004 2°55.45 19.5546 0.091948 0.440742 -2.871232
2007-04-16 09:00:33 51°14.004 2°55.45 19.5556 0.091845 0.440239 -2.871232
2007-04-16 09:00:38 51°14.004 2°55.45 19.5581 0.091845 0.440246 -2.871232
2007-04-16 09:00:43 51°14.004 2°55.45 19.5588 0.091845 0.440246 -2.871232
2007-04-16 09:00:48 51°14.004 2°55.45 19.5607 0.091845 0.440246 -2.871232
2007-04-16 09:00:53 51°14.004 2°55.451 19.5609 0.091845 0.440246 -2.871232
2007-04-16 09:00:58 51°14.004 2°55.451 19.5627 0.091845 0.440246 -2.871232
2007-04-16 09:01:03 51°14.004 2°55.451 19.563 0.091845 0.440254 -2.871232
2007-04-16 09:01:08 51°14.004 2°55.451 19.5626 0.091845 0.440254 -2.871232
2007-04-16 09:01:13 51°14.004 2°55.451 19.5659 0.091845 0.440254 -2.871232
2007-04-16 09:01:18 51°14.004 2°55.451 19.5656 0.091845 0.440261 -2.871232
2007-04-16 09:01:23 51°14.004 2°55.451 19.5657 0.091948 0.440771 -2.871232
2007-04-16 09:01:28 51°14.004 2°55.451 19.5633 0.091948 0.440771 -2.871232
2007-04-16 09:01:33 51°14.004 2°55.451 19.5663 0.091845 0.440268 -2.871232
2007-04-16 09:01:38 51°14.004 2°55.451 19.5626 0.091948 0.440779 -2.871232
2007-04-16 09:01:43 51°14.004 2°55.451 19.5739 0.091845 0.440276 -2.871232
2007-04-16 09:01:48 51°14.004 2°55.451 19.5702 0.091845 0.440283 -2.871232
2007-04-16 09:01:53 51°14.004 2°55.451 19.5751 0.091845 0.440276 -2.871232
2007-04-16 09:01:58 51°14.003 2°55.45 19.5727 0.091845 0.440276 -2.871232
2007-04-16 09:02:03 51°14.003 2°55.45 19.5706 0.091845 0.440283 -2.871232
2007-04-16 09:02:08 51°14.003 2°55.45 19.5724 0.091845 0.440283 -2.871232
2007-04-16 09:02:13 51°14.003 2°55.45 19.5738 0.091948 0.440801 -2.871232
2007-04-16 09:02:18 51°14.003 2°55.45 19.5732 0.091845 0.440283 -2.871232
2007-04-16 09:02:23 51°14.003 2°55.45 19.5727 0.091845 0.44029 -2.871232
2007-04-16 09:02:28 51°14.003 2°55.45 19.5735 0.091845 0.44029 -2.871232
2007-04-16 09:02:33 51°14.003 2°55.45 19.5741 0.091845 0.44029 -2.871232
2007-04-16 09:02:38 51°14.003 2°55.451 19.5763 0.091845 0.440298 -2.871232
2007-04-16 09:02:43 51°14.003 2°55.45 19.5754 0.091845 0.440298 -2.871232
2007-04-16 09:02:48 51°14.003 2°55.451 19.577 0.091845 0.440305 -2.871232
2007-04-16 09:02:53 51°14.003 2°55.451 19.5769 0.091845 0.440305 -2.871232
2007-04-16 09:02:58 51°14.003 2°55.451 19.5784 0.091845 0.440305 -2.871232
2007-04-16 09:03:03 51°14.003 2°55.451 19.5789 0.091845 0.440305 -2.871232
2007-04-16 09:03:08 51°14.003 2°55.451 19.579 0.091948 0.440823 -2.871232
2007-04-16 09:03:13 51°14.003 2°55.451 19.5806 0.091845 0.440312 -2.871232
2007-04-16 09:03:18 51°14.003 2°55.451 19.5811 0.091948 0.440823 -2.871232
2007-04-16 09:03:23 51°14.003 2°55.451 19.5812 0.091845 0.44032 -2.871232
2007-04-16 09:03:28 51°14.003 2°55.451 19.5817 0.091845 0.44032 -2.871232
2007-04-16 09:03:33 51°14.003 2°55.451 19.5828 0.091845 0.440327 -2.871232
2007-04-16 09:03:38 51°14.003 2°55.451 19.584 0.091845 0.44032 -2.871232
2007-04-16 09:03:43 51°14.003 2°55.451 19.5852 0.091845 0.440327 -2.871232
2007-04-16 09:03:48 51°14.003 2°55.451 19.5793 0.091845 0.440327 -2.871232
2007-04-16 09:03:53 51°14.003 2°55.451 19.5877 0.091743 0.439824 -2.871232
2007-04-16 09:03:58 51°14.003 2°55.451 19.5946 0.091743 0.439824 -2.871232
2007-04-16 09:04:03 51°14.003 2°55.45 19.5951 0.091845 0.440334 -2.871232
2007-04-16 09:04:08 51°14.003 2°55.45 19.5821 0.091845 0.440342 -2.871232
2007-04-16 09:04:13 51°14.003 2°55.45 19.5815 0.091845 0.440334 -2.871232
2007-04-16 09:04:18 51°14.003 2°55.45 19.5626 0.091845 0.440342 -2.871232
2007-04-16 09:04:23 51°14.003 2°55.45 19.5731 0.091845 0.440349 -2.871232
2007-04-16 09:04:28 51°14.003 2°55.45 19.5705 0.091845 0.440349 -2.871232
2007-04-16 09:04:33 51°14.003 2°55.449 19.571 0.091845 0.440342 -2.871232
2007-04-16 09:04:38 51°14.003 2°55.449 19.5756 0.091845 0.440349 -2.871232
2007-04-16 09:04:43 51°14.003 2°55.449 19.5751 0.091845 0.440349 -2.871232
2007-04-16 09:04:48 51°14.003 2°55.449 19.5838 0.091845 0.440356 -2.871232
2007-04-16 09:04:53 51°14.003 2°55.449 19.5918 0.091845 0.440356 -2.871232
2007-04-16 09:04:58 51°14.003 2°55.449 19.5897 0.091845 0.440356 -2.871232
2007-04-16 09:05:03 51°14.003 2°55.449 19.6056 0.091845 0.440356 -2.871232
2007-04-16 09:05:08 51°14.003 2°55.449 19.5914 0.091845 0.440364 -2.871232
2007-04-16 09:05:13 51°14.003 2°55.449 19.58 0.091845 0.440364 -2.871232
2007-04-16 09:05:18 51°14.004 2°55.45 19.5811 0.091845 0.440364 -2.871232
2007-04-16 09:05:23 51°14.004 2°55.45 19.5897 0.091845 0.440364 -2.871232
2007-04-16 09:05:28 51°14.004 2°55.45 19.5914 0.091845 0.440364 -2.871232
2007-04-16 09:05:33 51°14.004 2°55.45 19.593 0.091845 0.440371 -2.871232
2007-04-16 09:05:38 51°14.004 2°55.451 19.5915 0.091845 0.440371 -2.871232
2007-04-16 09:05:43 51°14.004 2°55.451 19.5958 0.091845 0.440378 -2.871232
2007-04-16 09:05:48 51°14.004 2°55.451 19.5963 0.091845 0.440371 -2.871232
2007-04-16 09:05:53 51°14.004 2°55.451 19.5953 0.091845 0.440378 -2.871232
2007-04-16 09:05:58 51°14.004 2°55.451 19.5957 0.091845 0.440378 -2.871232
2007-04-16 09:06:03 51°14.004 2°55.451 19.5979 0.091948 0.440889 -2.871232
2007-04-16 09:06:08 51°14.004 2°55.451 19.599 0.091845 0.440386 -2.871232
2007-04-16 09:06:13 51°14.003 2°55.45 19.6024 0.091845 0.440393 -2.871232
2007-04-16 09:06:18 51°14.003 2°55.45 19.6071 0.091845 0.440386 -2.871232
2007-04-16 09:06:23 51°14.003 2°55.45 19.6086 0.091845 0.440393 -2.871232
2007-04-16 09:06:28 51°14.003 2°55.45 19.6085 0.091845 0.440393 -2.871232
2007-04-16 09:06:33 51°14.003 2°55.45 19.6104 0.091845 0.440393 -2.871232
2007-04-16 09:06:38 51°14.003 2°55.45 19.6108 0.091845 0.4404 -2.871232
2007-04-16 09:06:43 51°14.003 2°55.451 19.6086 0.091845 0.4404 -2.871232
2007-04-16 09:06:48 51°14.002 2°55.449 19.6136 0.091948 0.440911 -2.871232
2007-04-16 09:06:53 51°14.001 2°55.447 19.6156 0.091845 0.440408 -2.871232
2007-04-16 09:06:58 51°14 2°55.446 19.6198 0.091845 0.440408 -2.871232
2007-04-16 09:07:03 51°14 2°55.446 19.6228 0.091845 0.4404 -2.871232
2007-04-16 09:07:08 51°14 2°55.445 19.6252 0.091845 0.440415 -2.871232
2007-04-16 09:07:13 51°14 2°55.445 19.6249 0.091845 0.440415 -2.871232
2007-04-16 09:07:18 51°14 2°55.446 19.6214 0.091845 0.440415 -2.871232
2007-04-16 09:07:23 51°14 2°55.446 19.6205 0.091845 0.440415 -2.871232
2007-04-16 09:07:28 51°14.001 2°55.447 19.6135 0.091845 0.440415 -2.871232
2007-04-16 09:07:33 51°14.001 2°55.447 19.6145 0.091845 0.440422 -2.871232
2007-04-16 09:07:38 51°14.001 2°55.448 19.613 0.091845 0.440422 -2.871232
2007-04-16 09:07:43 51°14.001 2°55.448 19.6131 0.091845 0.440422 -2.871232
2007-04-16 09:07:48 51°14.001 2°55.448 19.6131 0.091845 0.44043 -2.871232
2007-04-16 09:07:53 51°14.001 2°55.448 19.6134 0.091845 0.440422 -2.871232
2007-04-16 09:07:58 51°14.001 2°55.448 19.611 0.091845 0.440422 -2.871232
2007-04-16 09:08:03 51°14.001 2°55.448 19.6082 0.091845 0.44043 -2.871232
2007-04-16 09:08:08 51°14.001 2°55.448 19.6103 0.091743 0.439919 -2.871232
2007-04-16 09:08:13 51°14.001 2°55.448 19.6096 0.091845 0.440437 -2.871232
2007-04-16 09:08:18 51°14.001 2°55.448 19.6098 0.091845 0.440437 -2.871232
2007-04-16 09:08:23 51°14.001 2°55.448 19.6119 0.091845 0.440437 -2.871232
2007-04-16 09:08:28 51°14.001 2°55.448 19.6104 0.091845 0.440437 -2.871232
2007-04-16 09:08:33 51°14.001 2°55.449 19.6018 0.091845 0.440437 -2.871232
2007-04-16 09:08:38 51°14.001 2°55.448 19.6016 0.091845 0.440444 -2.871232
2007-04-16 09:08:43 51°14.001 2°55.449 19.6017 0.091845 0.440444 -2.871232
2007-04-16 09:08:48 51°14.001 2°55.449 19.6021 0.091845 0.440444 -2.871232
2007-04-16 09:08:53 51°14.001 2°55.448 19.6051 0.091948 0.440955 -2.871232
2007-04-16 09:08:58 51°14.001 2°55.448 19.6065 0.091948 0.440955 -2.871232
2007-04-16 09:09:03 51°14.001 2°55.449 19.6081 0.091845 0.440452 -2.871232
2007-04-16 09:09:08 51°14.001 2°55.448 19.6076 0.091845 0.440452 -2.871232
2007-04-16 09:09:13 51°14.001 2°55.448 19.6095 0.091845 0.440459 -2.871232
2007-04-16 09:09:18 51°14.001 2°55.448 19.6025 0.091845 0.440452 -2.871232
2007-04-16 09:09:23 51°14.001 2°55.448 19.6127 0.091845 0.440459 -2.871232
2007-04-16 09:09:28 51°14.001 2°55.448 19.6112 0.091845 0.440459 -2.871232
2007-04-16 09:09:33 51°14.001 2°55.448 19.6125 0.091845 0.440459 -2.871232
2007-04-16 09:09:38 51°14.001 2°55.448 19.6113 0.091743 0.439956 -2.871232
2007-04-16 09:09:43 51°14.001 2°55.448 19.6389 0.091845 0.440466 -2.871232
2007-04-16 09:09:48 51°14.001 2°55.448 19.6189 0.091845 0.440466 -2.871232
2007-04-16 09:09:53 51°14.001 2°55.448 19.6277 0.091845 0.440466 -2.871232
2007-04-16 09:09:58 51°14.001 2°55.448 19.6738 0.091845 0.440466 -2.871232
2007-04-16 09:10:03 51°14.002 2°55.449 19.6134 0.091845 0.440466 -2.871232
2007-04-16 09:10:08 51°14.003 2°55.45 19.6465 0.091743 0.439956 -2.871232
2007-04-16 09:10:13 51°14.003 2°55.45 19.6575 0.091845 0.440474 -2.871232
2007-04-16 09:10:18 51°14.003 2°55.449 19.6485 0.091743 0.439963 -2.871232
2007-04-16 09:10:23 51°14.003 2°55.449 19.6379 0.091948 0.440991 -2.871232
2007-04-16 09:10:28 51°14.003 2°55.449 19.6826 0.091948 0.440991 -2.871232
2007-04-16 09:10:33 51°14.003 2°55.449 19.6623 0.091845 0.440481 -2.871232
2007-04-16 09:10:38 51°14.003 2°55.449 19.6688 0.091845 0.440481 -2.871232
2007-04-16 09:10:43 51°14.003 2°55.449 19.6546 0.091845 0.440488 -2.871232
2007-04-16 09:10:48 51°14.003 2°55.449 19.6634 0.091845 0.440481 -2.871232
2007-04-16 09:10:53 51°14.003 2°55.449 19.6624 0.091845 0.440488 -2.871232
2007-04-16 09:10:58 51°14.003 2°55.449 19.6626 0.091845 0.440488 -2.871232
2007-04-16 09:11:03 51°14.003 2°55.449 19.6624 0.091845 0.440488 -2.871232
2007-04-16 09:11:08 51°14.003 2°55.449 19.6631 0.091845 0.440496 -2.871232
2007-04-16 09:11:13 51°14.004 2°55.45 19.6625 0.091743 0.439985 -2.871232
2007-04-16 09:11:18 51°14.004 2°55.451 19.6605 0.091743 0.439985 -2.871232
2007-04-16 09:11:23 51°14.004 2°55.45 19.6605 0.091845 0.440503 -2.871232
2007-04-16 09:11:28 51°14.003 2°55.449 19.6622 0.091845 0.440503 -2.871232
2007-04-16 09:11:34 51°14.003 2°55.449 19.6742 0.091845 0.440496 -2.871232
2007-04-16 09:11:38 51°14.003 2°55.449 19.6667 0.091845 0.440503 -2.871232
2007-04-16 09:11:43 51°14.003 2°55.449 19.6621 0.091948 0.441013 -2.871232
2007-04-16 09:11:48 51°14.003 2°55.449 19.6661 0.091845 0.44051 -2.871232
2007-04-16 09:11:53 51°14.003 2°55.449 19.6667 0.091845 0.440503 -2.871232
2007-04-16 09:11:58 51°14.002 2°55.448 19.6656 0.091845 0.440503 -2.871232
2007-04-16 09:12:03 51°14.002 2°55.448 19.6647 0.091845 0.44051 -2.871232
2007-04-16 09:12:08 51°14.002 2°55.447 19.6661 0.091845 0.440518 -2.871232
2007-04-16 09:12:13 51°14.002 2°55.448 19.6658 0.091845 0.44051 -2.871232
2007-04-16 09:12:18 51°14.002 2°55.448 19.6682 0.091845 0.440518 -2.871232
2007-04-16 09:12:23 51°14.003 2°55.448 19.6659 0.091845 0.440518 -2.871232
2007-04-16 09:12:28 51°14.003 2°55.449 19.6601 0.091845 0.440518 -2.871232
2007-04-16 09:12:33 51°14.003 2°55.449 19.6579 0.091845 0.440518 -2.871232
2007-04-16 09:12:38 51°14.003 2°55.449 19.6588 0.091845 0.440525 -2.871232
2007-04-16 09:12:43 51°14.003 2°55.449 19.6645 0.091845 0.440525 -2.871232
2007-04-16 09:12:48 51°14.003 2°55.449 19.6696 0.091845 0.440525 -2.871232
2007-04-16 09:12:53 51°14.003 2°55.449 19.674 0.091845 0.440525 -2.871232
2007-04-16 09:12:58 51°14.003 2°55.449 19.6818 0.091845 0.440525 -2.871232
2007-04-16 09:13:03 51°14.003 2°55.449 19.6837 0.091845 0.440525 -2.871232
2007-04-16 09:13:08 51°14.003 2°55.449 19.6805 0.091845 0.440532 -2.871232
2007-04-16 09:13:13 51°14.003 2°55.449 19.674 0.091845 0.440532 -2.871232
2007-04-16 09:13:18 51°14.003 2°55.449 19.6749 0.091743 0.440022 -2.871232
2007-04-16 09:13:23 51°14.003 2°55.449 19.6772 0.091845 0.44054 -2.871232
2007-04-16 09:13:28 51°14.003 2°55.449 19.6858 0.091845 0.44054 -2.871232
2007-04-16 09:13:33 51°14.004 2°55.449 19.6653 0.091845 0.44054 -2.871232
2007-04-16 09:13:38 51°14.004 2°55.45 19.6465 0.091845 0.440547 -2.871232
2007-04-16 09:13:43 51°14.004 2°55.45 19.6478 0.091845 0.44054 -2.871232
2007-04-16 09:13:48 51°14.004 2°55.45 19.662 0.091845 0.440547 -2.871232
2007-04-16 09:13:53 51°14.004 2°55.45 19.6617 0.091845 0.440547 -2.871232
2007-04-16 09:13:58 51°14.004 2°55.45 19.6649 0.091845 0.440547 -2.871232
2007-04-16 09:14:03 51°14.004 2°55.45 19.6603 0.091845 0.440547 -2.871232
2007-04-16 09:14:08 51°14.004 2°55.451 19.6475 0.091845 0.440547 -2.871232
2007-04-16 09:14:13 51°14.004 2°55.451 19.6509 0.091743 0.440044 -2.871232
2007-04-16 09:14:18 51°14.004 2°55.451 19.6482 0.091743 0.440044 -2.871232
2007-04-16 09:14:23 51°14.004 2°55.451 19.6508 0.091845 0.440554 -2.871232
2007-04-16 09:14:28 51°14.004 2°55.451 19.661 0.091845 0.440554 -2.871232
2007-04-16 09:14:33 51°14.004 2°55.451 19.6618 0.091743 0.440044 -2.871232
2007-04-16 09:14:38 51°14.004 2°55.451 19.6668 0.091845 0.440562 -2.871232
2007-04-16 09:14:43 51°14.004 2°55.451 19.6703 0.091845 0.440562 -2.871232
2007-04-16 09:14:48 51°14.004 2°55.451 19.6736 0.091743 0.440051 -2.871232
2007-04-16 09:14:53 51°14.004 2°55.451 19.6759 0.091845 0.440562 -2.871232
2007-04-16 09:14:58 51°14.004 2°55.451 19.6776 0.091845 0.440562 -2.871232
2007-04-16 09:15:03 51°14.004 2°55.451 19.6796 0.091743 0.440058 -2.871232
2007-04-16 09:15:08 51°14.004 2°55.451 19.6816 0.091845 0.440569 -2.871232
2007-04-16 09:15:13 51°14.004 2°55.451 19.6831 0.091743 0.440058 -2.871232
2007-04-16 09:15:18 51°14.004 2°55.451 19.6824 0.091845 0.440569 -2.871232
2007-04-16 09:15:23 51°14.004 2°55.451 19.6833 0.091845 0.440576 -2.871232
2007-04-16 09:15:28 51°14.004 2°55.451 19.6818 0.091845 0.440576 -2.871232
2007-04-16 09:15:33 51°14.004 2°55.451 19.682 0.091845 0.440569 -2.871232
2007-04-16 09:15:38 51°14.004 2°55.451 19.6827 0.091845 0.440576 -2.871232
2007-04-16 09:15:43 51°14.004 2°55.451 19.6841 0.091743 0.440073 -2.871232
2007-04-16 09:15:48 51°14.004 2°55.451 19.6857 0.091743 0.440073 -2.871232
2007-04-16 09:15:53 51°14.004 2°55.451 19.6856 0.091743 0.440073 -2.871232
2007-04-16 09:15:58 51°14.004 2°55.451 19.6863 0.091743 0.440073 -2.871232
2007-04-16 09:16:03 51°14.004 2°55.451 19.6867 0.091845 0.440584 -2.871232
2007-04-16 09:16:08 51°14.004 2°55.451 19.6877 0.091743 0.440073 -2.871232
2007-04-16 09:16:13 51°14.004 2°55.451 19.6868 0.091743 0.44008 -2.871232
2007-04-16 09:16:18 51°14.004 2°55.451 19.6873 0.091743 0.44008 -2.871232
2007-04-16 09:16:23 51°14.004 2°55.451 19.6865 0.091845 0.440591 -2.871232
2007-04-16 09:16:28 51°14.004 2°55.451 19.6889 0.091845 0.440591 -2.871232
2007-04-16 09:16:33 51°14.004 2°55.451 19.6986 0.091743 0.44008 -2.871232
2007-04-16 09:16:38 51°14.004 2°55.451 19.6906 0.091743 0.440088 -2.871232
2007-04-16 09:16:43 51°14.004 2°55.451 19.6875 0.091845 0.440598 -2.871232
2007-04-16 09:16:48 51°14.004 2°55.451 19.6789 0.091845 0.440598 -2.871232
2007-04-16 09:16:53 51°14.004 2°55.451 19.6844 0.091743 0.440088 -2.871232
2007-04-16 09:16:58 51°14.004 2°55.451 19.6869 0.091743 0.440088 -2.871232
2007-04-16 09:17:03 51°14.004 2°55.451 19.7064 0.091743 0.440095 -2.871232
2007-04-16 09:17:08 51°14.004 2°55.451 19.7208 0.091743 0.440095 -2.871232
2007-04-16 09:17:13 51°14.004 2°55.451 19.7147 0.091743 0.440095 -2.871232
2007-04-16 09:17:18 51°14.004 2°55.451 19.7076 0.091743 0.440095 -2.871232
2007-04-16 09:17:24 51°14.004 2°55.451 19.7003 0.091743 0.440095 -2.871232
2007-04-16 09:17:28 51°14.003 2°55.45 19.6922 0.091743 0.440095 -2.871232
2007-04-16 09:17:33 51°14.004 2°55.451 19.6977 0.091743 0.440095 -2.871232
2007-04-16 09:17:38 51°14.004 2°55.45 19.7086 0.091845 0.440613 -2.871232
2007-04-16 09:17:43 51°14.003 2°55.45 19.693 0.091743 0.440102 -2.871232
2007-04-16 09:17:48 51°14.003 2°55.449 19.6897 0.091845 0.440613 -2.871232
2007-04-16 09:17:53 51°14.003 2°55.449 19.6902 0.091743 0.440102 -2.871232
2007-04-16 09:17:58 51°14.003 2°55.449 19.6934 0.091743 0.440102 -2.871232
2007-04-16 09:18:03 51°14.003 2°55.449 19.6942 0.091743 0.44011 -2.871232
2007-04-16 09:18:08 51°14.003 2°55.449 19.6983 0.091845 0.44062 -2.871232
2007-04-16 09:18:13 51°14.003 2°55.449 19.7025 0.091743 0.44011 -2.871232
2007-04-16 09:18:18 51°14.003 2°55.449 19.7027 0.091743 0.440117 -2.871232
2007-04-16 09:18:23 51°14.003 2°55.449 19.7031 0.091845 0.44062 -2.871232
2007-04-16 09:18:28 51°14.003 2°55.449 19.6975 0.091845 0.44062 -2.871232
2007-04-16 09:18:33 51°14.003 2°55.45 19.6954 0.091743 0.440117 -2.871232
2007-04-16 09:18:38 51°14.003 2°55.45 19.6928 0.091743 0.440117 -2.871232
2007-04-16 09:18:43 51°14.003 2°55.45 19.6992 0.091743 0.440117 -2.871232
2007-04-16 09:18:48 51°14.003 2°55.45 19.7031 0.091743 0.440124 -2.871232
2007-04-16 09:18:53 51°14.003 2°55.45 19.704 0.091845 0.440635 -2.871232
2007-04-16 09:18:58 51°14.004 2°55.45 19.7089 0.091845 0.440635 -2.871232
2007-04-16 09:19:03 51°14.004 2°55.45 19.7107 0.091743 0.440124 -2.871232
2007-04-16 09:19:08 51°14.004 2°55.45 19.7108 0.091845 0.440642 -2.871232
2007-04-16 09:19:13 51°14.004 2°55.451 19.7125 0.091743 0.440132 -2.871232
2007-04-16 09:19:18 51°14.004 2°55.451 19.7132 0.091845 0.440642 -2.871232
2007-04-16 09:19:23 51°14.004 2°55.451 19.7128 0.091743 0.440132 -2.871232
2007-04-16 09:19:28 51°14.004 2°55.451 19.7124 0.091743 0.440132 -2.871232
2007-04-16 09:19:33 51°14.004 2°55.451 19.7127 0.091743 0.440132 -2.871232
2007-04-16 09:19:38 51°14.004 2°55.451 19.7125 0.091743 0.440139 -2.871232
2007-04-16 09:19:43 51°14.004 2°55.451 19.7046 0.091845 0.44065 -2.871232
2007-04-16 09:19:48 51°14.004 2°55.451 19.7126 0.091845 0.44065 -2.871232
2007-04-16 09:19:53 51°14.004 2°55.452 19.7112 0.091743 0.440139 -2.871232
2007-04-16 09:19:58 51°14.004 2°55.452 19.6909 0.091743 0.440139 -2.871232
2007-04-16 09:20:03 51°14.004 2°55.452 19.6974 0.091743 0.440146 -2.871232
2007-04-16 09:20:08 51°14.004 2°55.452 19.7116 0.091743 0.440139 -2.871232
2007-04-16 09:20:13 51°14.004 2°55.452 19.718 0.091845 0.440657 -2.871232
2007-04-16 09:20:18 51°14.004 2°55.452 19.7211 0.091743 0.440154 -2.871232
2007-04-16 09:20:23 51°14.004 2°55.451 19.7222 0.091743 0.440154 -2.871232
2007-04-16 09:20:28 51°14.004 2°55.451 19.7305 0.091743 0.440154 -2.871232
2007-04-16 09:20:33 51°14.004 2°55.451 19.7332 0.091743 0.440154 -2.871232
2007-04-16 09:20:38 51°14.004 2°55.451 19.7401 0.091743 0.440154 -2.871232
2007-04-16 09:20:43 51°14.004 2°55.451 19.7455 0.091743 0.440161 -2.871232
2007-04-16 09:20:48 51°14.004 2°55.451 19.7407 0.091743 0.440161 -2.871232
2007-04-16 09:20:53 51°14.004 2°55.451 19.7495 0.091743 0.440161 -2.871232
2007-04-16 09:20:59 51°14.004 2°55.451 19.7579 0.091743 0.440161 -2.871232
2007-04-16 09:21:03 51°14.004 2°55.451 19.7574 0.091743 0.440161 -2.871232
2007-04-16 09:21:08 51°14.004 2°55.451 19.7409 0.091743 0.440161 -2.871232
2007-04-16 09:21:13 51°14.004 2°55.451 19.7339 0.091743 0.440168 -2.871232
2007-04-16 09:21:18 51°14.004 2°55.451 19.7452 0.091743 0.440168 -2.871232
2007-04-16 09:21:23 51°14.004 2°55.451 19.7468 0.091743 0.440168 -2.871232
2007-04-16 09:21:28 51°14.004 2°55.451 19.745 0.091743 0.440168 -2.871232
2007-04-16 09:21:33 51°14.004 2°55.451 19.7372 0.091743 0.440168 -2.871232
2007-04-16 09:21:38 51°14.003 2°55.451 19.7344 0.091743 0.440168 -2.871232
2007-04-16 09:21:43 51°14.003 2°55.451 19.731 0.091743 0.440168 -2.871232
2007-04-16 09:21:48 51°14.003 2°55.451 19.7329 0.091743 0.440176 -2.871232
2007-04-16 09:21:53 51°14.003 2°55.451 19.7292 0.091743 0.440176 -2.871232
2007-04-16 09:21:58 51°14.003 2°55.451 19.7305 0.091743 0.440176 -2.871232
2007-04-16 09:22:03 51°14.003 2°55.451 19.7323 0.091845 0.440686 -2.871232
2007-04-16 09:22:08 51°14.003 2°55.451 19.7226 0.091743 0.440183 -2.871232
2007-04-16 09:22:13 51°14.003 2°55.451 19.7233 0.091845 0.440694 -2.871232
2007-04-16 09:22:18 51°14.003 2°55.451 19.686 0.091743 0.440183 -2.871232
2007-04-16 09:22:23 51°14.003 2°55.451 19.7053 0.091743 0.440183 -2.871232
2007-04-16 09:22:28 51°14.004 2°55.451 19.7174 0.091743 0.440183 -2.871232
2007-04-16 09:22:33 51°14.004 2°55.451 19.7218 0.091743 0.440183 -2.871232
2007-04-16 09:22:38 51°14.004 2°55.451 19.7299 0.091743 0.44019 -2.871232
2007-04-16 09:22:43 51°14.003 2°55.451 19.7352 0.091743 0.44019 -2.871232
2007-04-16 09:22:48 51°14.003 2°55.451 19.7471 0.091845 0.440701 -2.871232
2007-04-16 09:22:53 51°14.003 2°55.451 19.7469 0.091743 0.44019 -2.871232
2007-04-16 09:22:58 51°14.003 2°55.451 19.7375 0.091743 0.44019 -2.871232
2007-04-16 09:23:03 51°14.003 2°55.451 19.7336 0.091743 0.44019 -2.871232
2007-04-16 09:23:08 51°14.003 2°55.451 19.7332 0.091845 0.440701 -2.871232
2007-04-16 09:23:13 51°14.003 2°55.451 19.7354 0.091845 0.440708 -2.871232
2007-04-16 09:23:18 51°14.003 2°55.451 19.7391 0.091743 0.440198 -2.871232
2007-04-16 09:23:23 51°14.003 2°55.451 19.7401 0.091743 0.440198 -2.871232
2007-04-16 09:23:28 51°14.003 2°55.451 19.7422 0.091743 0.440198 -2.871232
2007-04-16 09:23:33 51°14.003 2°55.451 19.7442 0.091743 0.440205 -2.871232
2007-04-16 09:23:38 51°14.003 2°55.451 19.7462 0.091743 0.440205 -2.871232
2007-04-16 09:23:43 51°14.004 2°55.451 19.7466 0.091743 0.440205 -2.871232
2007-04-16 09:23:48 51°14.004 2°55.451 19.7479 0.091743 0.440205 -2.871232
2007-04-16 09:23:53 51°14.004 2°55.451 19.75 0.091743 0.440205 -2.871232
2007-04-16 09:23:58 51°14.004 2°55.451 19.7519 0.091743 0.440205 -2.871232
2007-04-16 09:24:03 51°14.004 2°55.451 19.7534 0.091743 0.440212 -2.871232
2007-04-16 09:24:08 51°14.004 2°55.451 19.7542 0.091743 0.440212 -2.871232
2007-04-16 09:24:13 51°14.004 2°55.451 19.7606 0.091743 0.440212 -2.871232
2007-04-16 09:24:18 51°14.004 2°55.451 19.7662 0.091743 0.440212 -2.871232
2007-04-16 09:24:23 51°14.004 2°55.451 19.7682 0.091743 0.44022 -2.871232
2007-04-16 09:24:28 51°14.004 2°55.451 19.7675 0.091743 0.44022 -2.871232
2007-04-16 09:24:33 51°14.004 2°55.451 19.7653 0.091743 0.44022 -2.871232
2007-04-16 09:24:38 51°14.004 2°55.451 19.7624 0.091743 0.44022 -2.871232
2007-04-16 09:24:43 51°14.004 2°55.451 19.7624 0.091743 0.44022 -2.871232
2007-04-16 09:24:48 51°14.003 2°55.451 19.7634 0.091743 0.440227 -2.871232
2007-04-16 09:24:53 51°14.004 2°55.451 19.7628 0.091743 0.440227 -2.871232
2007-04-16 09:24:58 51°14.004 2°55.452 19.764 0.091743 0.440227 -2.871232
2007-04-16 09:25:03 51°14.004 2°55.452 19.7646 0.091743 0.440227 -2.871232
2007-04-16 09:25:08 51°14.004 2°55.452 19.7639 0.091743 0.440227 -2.871232
2007-04-16 09:25:13 51°14.004 2°55.452 19.7638 0.091743 0.440234 -2.871232
2007-04-16 09:25:18 51°14.004 2°55.452 19.7632 0.091743 0.440234 -2.871232
2007-04-16 09:25:23 51°14.004 2°55.452 19.7643 0.091743 0.440234 -2.871232
2007-04-16 09:25:28 51°14.004 2°55.452 19.7623 0.091743 0.440234 -2.871232
2007-04-16 09:25:33 51°14.004 2°55.452 19.7615 0.091743 0.440234 -2.871232
2007-04-16 09:25:38 51°14.004 2°55.452 19.7591 0.091743 0.440242 -2.871232
2007-04-16 09:25:43 51°14.004 2°55.452 19.757 0.09164 0.439731 -2.871232
2007-04-16 09:25:48 51°14.004 2°55.452 19.7631 0.091845 0.440752 -2.871232
2007-04-16 09:25:53 51°14.004 2°55.452 19.7652 0.091743 0.440249 -2.871232
2007-04-16 09:25:58 51°14.004 2°55.452 19.7681 0.091743 0.440249 -2.871232
2007-04-16 09:26:03 51°14.004 2°55.452 19.7736 0.091743 0.440249 -2.871232
2007-04-16 09:26:08 51°14.004 2°55.452 19.7715 0.091743 0.440249 -2.871232
2007-04-16 09:26:13 51°14.004 2°55.452 19.7799 0.091743 0.440249 -2.871232
2007-04-16 09:26:18 51°14.004 2°55.452 19.7765 0.09164 0.439738 -2.871232
2007-04-16 09:26:23 51°14.003 2°55.452 19.778 0.091743 0.440249 -2.871232
2007-04-16 09:26:28 51°14.003 2°55.452 19.7809 0.091743 0.440249 -2.871232
2007-04-16 09:26:33 51°14.004 2°55.452 19.7882 0.09164 0.439745 -2.871232
2007-04-16 09:26:38 51°14.004 2°55.452 19.7923 0.091845 0.440767 -2.871232
2007-04-16 09:26:43 51°14.003 2°55.452 19.7827 0.091743 0.440256 -2.871232
2007-04-16 09:26:48 51°14.004 2°55.452 19.781 0.091743 0.440256 -2.871232
2007-04-16 09:26:53 51°14.004 2°55.452 19.783 0.091845 0.440774 -2.871232
2007-04-16 09:26:58 51°14.004 2°55.452 19.7819 0.091845 0.440774 -2.871232
2007-04-16 09:27:03 51°14.004 2°55.452 19.7751 0.091743 0.440264 -2.871232
2007-04-16 09:27:08 51°14.004 2°55.452 19.7802 0.091743 0.440264 -2.871232
2007-04-16 09:27:13 51°14.004 2°55.452 19.7899 0.09164 0.439753 -2.871232
2007-04-16 09:27:18 51°14.004 2°55.452 19.7994 0.091743 0.440264 -2.871232
2007-04-16 09:27:23 51°14.004 2°55.452 19.8058 0.09164 0.43976 -2.871232
2007-04-16 09:27:28 51°14.004 2°55.452 19.8052 0.09164 0.43976 -2.871232
2007-04-16 09:27:33 51°14.004 2°55.452 19.8011 0.091743 0.440271 -2.871232
2007-04-16 09:27:38 51°14.004 2°55.452 19.7981 0.091743 0.440271 -2.871232
2007-04-16 09:27:43 51°14.004 2°55.452 19.7885 0.091845 0.440782 -2.871232
2007-04-16 09:27:48 51°14.004 2°55.452 19.781 0.091743 0.440278 -2.871232
2007-04-16 09:27:53 51°14.004 2°55.452 19.7809 0.091743 0.440271 -2.871232
2007-04-16 09:27:58 51°14.004 2°55.452 19.7775 0.091743 0.440271 -2.871232
2007-04-16 09:28:03 51°14.004 2°55.452 19.7805 0.091743 0.440278 -2.871232
2007-04-16 09:28:08 51°14.004 2°55.452 19.7782 0.091743 0.440278 -2.871232
2007-04-16 09:28:13 51°14.004 2°55.452 19.7716 0.091743 0.440278 -2.871232
2007-04-16 09:28:18 51°14.004 2°55.452 19.7676 0.09164 0.439775 -2.871232
2007-04-16 09:28:23 51°14.004 2°55.452 19.7714 0.091845 0.440796 -2.871232
2007-04-16 09:28:29 51°14.004 2°55.452 19.7769 0.091845 0.440796 -2.871232
2007-04-16 09:28:33 51°14.004 2°55.452 19.7792 0.091743 0.440286 -2.871232
2007-04-16 09:28:38 51°14.004 2°55.452 19.7818 0.091743 0.440286 -2.871232
2007-04-16 09:28:43 51°14.004 2°55.452 19.7828 0.091743 0.440293 -2.871232
2007-04-16 09:28:48 51°14.004 2°55.452 19.7864 0.09164 0.439775 -2.871232
2007-04-16 09:28:53 51°14.004 2°55.452 19.7931 0.091743 0.440293 -2.871232
2007-04-16 09:28:58 51°14.004 2°55.452 19.8089 0.091743 0.440293 -2.871232
2007-04-16 09:29:03 51°14.004 2°55.452 19.8208 0.091743 0.440293 -2.871232
2007-04-16 09:29:08 51°14.004 2°55.452 19.7919 0.091743 0.4403 -2.871232
2007-04-16 09:29:13 51°14.004 2°55.452 19.8009 0.091743 0.4403 -2.871232
2007-04-16 09:29:18 51°14.004 2°55.452 19.7934 0.091743 0.4403 -2.871232
2007-04-16 09:29:23 51°14.004 2°55.452 19.799 0.091743 0.4403 -2.871232
2007-04-16 09:29:28 51°14.004 2°55.452 19.7988 0.091743 0.4403 -2.871232
2007-04-16 09:29:33 51°14.004 2°55.452 19.8035 0.091743 0.4403 -2.871232
2007-04-16 09:29:38 51°14.004 2°55.452 19.8061 0.091743 0.440308 -2.871232
2007-04-16 09:29:43 51°14.004 2°55.452 19.8048 0.091743 0.440308 -2.871232
2007-04-16 09:29:48 51°14.004 2°55.452 19.7979 0.091743 0.440308 -2.871232
2007-04-16 09:29:53 51°14.004 2°55.452 19.799 0.09164 0.439797 -2.871232
2007-04-16 09:29:58 51°14.004 2°55.452 19.7996 0.09164 0.439797 -2.871232
2007-04-16 09:30:03 51°14.004 2°55.452 19.7986 0.091743 0.440315 -2.871232
2007-04-16 09:30:08 51°14.004 2°55.452 19.8 0.091743 0.440308 -2.871232
2007-04-16 09:30:13 51°14.004 2°55.452 19.7991 0.091743 0.440315 -2.871232
2007-04-16 09:30:18 51°14.004 2°55.452 19.8016 0.091845 0.440826 -2.871232
2007-04-16 09:30:23 51°14.004 2°55.452 19.8044 0.091743 0.440315 -2.871232
2007-04-16 09:30:28 51°14.004 2°55.452 19.8044 0.091743 0.440315 -2.871232
2007-04-16 09:30:33 51°14.004 2°55.452 19.8079 0.09164 0.439804 -2.871232
2007-04-16 09:30:38 51°14.004 2°55.452 19.8109 0.091743 0.440315 -2.871232
2007-04-16 09:30:43 51°14.004 2°55.452 19.8158 0.09164 0.439811 -2.871232
2007-04-16 09:30:48 51°14.004 2°55.452 19.8207 0.091743 0.440322 -2.871232
2007-04-16 09:30:53 51°14.004 2°55.452 19.819 0.091743 0.440322 -2.871232
2007-04-16 09:30:58 51°14.004 2°55.452 19.8182 0.091743 0.440322 -2.871232
2007-04-16 09:31:03 51°14.004 2°55.452 19.8179 0.09164 0.439811 -2.871232
2007-04-16 09:31:08 51°14.004 2°55.452 19.8198 0.09164 0.439819 -2.871232
2007-04-16 09:31:13 51°14.004 2°55.452 19.82 0.09164 0.439811 -2.871232
2007-04-16 09:31:18 51°14.004 2°55.452 19.8191 0.09164 0.439819 -2.871232
2007-04-16 09:31:23 51°14.004 2°55.452 19.8197 0.091743 0.44033 -2.871232
2007-04-16 09:31:29 51°14.005 2°55.453 19.8234 0.091743 0.44033 -2.871232
2007-04-16 09:31:33 51°14.004 2°55.452 19.8254 0.091743 0.440337 -2.871232
2007-04-16 09:31:38 51°14.004 2°55.452 19.8289 0.09164 0.439826 -2.871232
2007-04-16 09:31:43 51°14.004 2°55.451 19.8367 0.091743 0.440337 -2.871232
2007-04-16 09:31:48 51°14.003 2°55.451 19.8394 0.091743 0.440337 -2.871232
2007-04-16 09:31:53 51°14.003 2°55.451 19.8323 0.091743 0.440337 -2.871232
2007-04-16 09:31:58 51°14.003 2°55.451 19.8314 0.091743 0.440337 -2.871232
2007-04-16 09:32:03 51°14.003 2°55.451 19.8271 0.091743 0.440337 -2.871232
2007-04-16 09:32:08 51°14.005 2°55.453 19.8256 0.091743 0.440344 -2.871232
2007-04-16 09:32:13 51°14.005 2°55.452 19.8253 0.09164 0.439833 -2.871232
2007-04-16 09:32:18 51°14.004 2°55.452 19.827 0.091743 0.440352 -2.871232
2007-04-16 09:32:23 51°14.005 2°55.452 19.8275 0.091743 0.440344 -2.871232
2007-04-16 09:32:28 51°14.005 2°55.453 19.8184 0.091743 0.440344 -2.871232
2007-04-16 09:32:33 51°14.005 2°55.453 19.8201 0.091743 0.440352 -2.871232
2007-04-16 09:32:38 51°14.005 2°55.452 19.821 0.091743 0.440352 -2.871232
2007-04-16 09:32:43 51°14.005 2°55.452 19.8229 0.09164 0.439841 -2.871232
2007-04-16 09:32:48 51°14.004 2°55.452 19.824 0.091743 0.440352 -2.871232
2007-04-16 09:32:53 51°14.004 2°55.451 19.8237 0.09164 0.439841 -2.871232
2007-04-16 09:32:58 51°14.004 2°55.451 19.8206 0.09164 0.439841 -2.871232
2007-04-16 09:33:03 51°14.004 2°55.451 19.8226 0.09164 0.439848 -2.871232
2007-04-16 09:33:08 51°14.004 2°55.451 19.8253 0.091743 0.440359 -2.871232
2007-04-16 09:33:13 51°14.004 2°55.45 19.8243 0.091743 0.440359 -2.871232
2007-04-16 09:33:18 51°14.004 2°55.451 19.8286 0.09164 0.439848 -2.871232
2007-04-16 09:33:23 51°14.004 2°55.45 19.8288 0.091743 0.440366 -2.871232
2007-04-16 09:33:28 51°14.004 2°55.451 19.8295 0.091743 0.440366 -2.871232
2007-04-16 09:33:33 51°14.004 2°55.45 19.8369 0.09164 0.439855 -2.871232
2007-04-16 09:33:38 51°14.004 2°55.45 19.8297 0.091845 0.440877 -2.871232
2007-04-16 09:33:43 51°14.004 2°55.45 19.8324 0.09164 0.439855 -2.871232
2007-04-16 09:33:48 51°14.004 2°55.45 19.8254 0.09164 0.439855 -2.871232
2007-04-16 09:33:53 51°14.004 2°55.451 19.8279 0.091743 0.440366 -2.871232
2007-04-16 09:33:58 51°14.004 2°55.451 19.8292 0.091743 0.440366 -2.871232
2007-04-16 09:34:03 51°14.004 2°55.451 19.8297 0.091743 0.440374 -2.871232
2007-04-16 09:34:08 51°14.004 2°55.451 19.8319 0.09164 0.439863 -2.871232
2007-04-16 09:34:13 51°14.004 2°55.45 19.8352 0.091743 0.440374 -2.871232
2007-04-16 09:34:19 51°14.004 2°55.451 19.8376 0.09164 0.439863 -2.871232
2007-04-16 09:34:23 51°14.004 2°55.451 19.8386 0.09164 0.439863 -2.871232
2007-04-16 09:34:28 51°14.004 2°55.451 19.8399 0.09164 0.439863 -2.871232
2007-04-16 09:34:33 51°14.005 2°55.451 19.8394 0.09164 0.439863 -2.871232
2007-04-16 09:34:38 51°14.005 2°55.451 19.8391 0.09164 0.439863 -2.871232
2007-04-16 09:34:43 51°14.004 2°55.451 19.8434 0.09164 0.43987 -2.871232
2007-04-16 09:34:48 51°14.004 2°55.451 19.8359 0.09164 0.43987 -2.871232
2007-04-16 09:34:53 51°14.004 2°55.451 19.8374 0.09164 0.43987 -2.871232
2007-04-16 09:34:58 51°14.004 2°55.45 19.8374 0.09164 0.43987 -2.871232
2007-04-16 09:35:03 51°14.004 2°55.45 19.8376 0.09164 0.439877 -2.871232
2007-04-16 09:35:08 51°14.004 2°55.45 19.8389 0.09164 0.439877 -2.871232
2007-04-16 09:35:13 51°14.004 2°55.45 19.8426 0.09164 0.439877 -2.871232
2007-04-16 09:35:18 51°14.004 2°55.45 19.849 0.091743 0.440388 -2.871232
2007-04-16 09:35:23 51°14.004 2°55.45 19.8525 0.091743 0.440396 -2.871232
2007-04-16 09:35:28 51°14.003 2°55.45 19.8535 0.091743 0.440396 -2.871232
2007-04-16 09:35:33 51°14.003 2°55.45 19.8548 0.09164 0.439885 -2.871232
2007-04-16 09:35:38 51°14.003 2°55.45 19.8528 0.091743 0.440396 -2.871232
2007-04-16 09:35:43 51°14.003 2°55.45 19.8527 0.09164 0.439885 -2.871232
2007-04-16 09:35:48 51°14.003 2°55.45 19.8521 0.091743 0.440396 -2.871232
2007-04-16 09:35:53 51°14.003 2°55.45 19.8572 0.09164 0.439885 -2.871232
2007-04-16 09:35:58 51°14.003 2°55.45 19.8591 0.09164 0.439885 -2.871232
2007-04-16 09:36:03 51°14.003 2°55.45 19.8623 0.091743 0.440396 -2.871232
2007-04-16 09:36:08 51°14.003 2°55.45 19.8615 0.09164 0.439892 -2.871232
2007-04-16 09:36:13 51°14.003 2°55.45 19.8605 0.091743 0.440403 -2.871232
2007-04-16 09:36:18 51°14.003 2°55.45 19.8596 0.09164 0.439892 -2.871232
2007-04-16 09:36:23 51°14.003 2°55.45 19.8611 0.09164 0.439892 -2.871232
2007-04-16 09:36:28 51°14.003 2°55.45 19.8678 0.09164 0.439892 -2.871232
2007-04-16 09:36:33 51°14.003 2°55.45 19.8714 0.09164 0.439899 -2.871232
2007-04-16 09:36:38 51°14.003 2°55.45 19.8719 0.09164 0.439899 -2.871232
2007-04-16 09:36:43 51°14.003 2°55.45 19.8696 0.09164 0.439899 -2.871232
2007-04-16 09:36:48 51°14.003 2°55.45 19.8588 0.09164 0.439899 -2.871232
2007-04-16 09:36:53 51°14.003 2°55.45 19.8607 0.09164 0.439899 -2.871232
2007-04-16 09:36:58 51°14.003 2°55.45 19.8543 0.09164 0.439899 -2.871232
2007-04-16 09:37:03 51°14.003 2°55.45 19.857 0.09164 0.439907 -2.871232
2007-04-16 09:37:08 51°14.003 2°55.45 19.86 0.09164 0.439907 -2.871232
2007-04-16 09:37:13 51°14.003 2°55.45 19.8639 0.091743 0.440418 -2.871232
2007-04-16 09:37:18 51°14.003 2°55.45 19.8654 0.091743 0.440418 -2.871232
2007-04-16 09:37:23 51°14.003 2°55.45 19.867 0.091743 0.440418 -2.871232
2007-04-16 09:37:28 51°14.003 2°55.451 19.8614 0.091743 0.440418 -2.871232
2007-04-16 09:37:33 51°14.005 2°55.452 19.8576 0.09164 0.439914 -2.871232
2007-04-16 09:37:38 51°14.005 2°55.452 19.8571 0.091743 0.440418 -2.871232
2007-04-16 09:37:43 51°14.006 2°55.453 19.8594 0.09164 0.439914 -2.871232
2007-04-16 09:37:48 51°14.007 2°55.454 19.8643 0.09164 0.439914 -2.871232
2007-04-16 09:37:53 51°14.007 2°55.454 19.8641 0.091743 0.440425 -2.871232
2007-04-16 09:37:58 51°14.007 2°55.454 19.8632 0.091743 0.440425 -2.871232
2007-04-16 09:38:03 51°14.007 2°55.454 19.8623 0.091743 0.440432 -2.871232
2007-04-16 09:38:08 51°14.006 2°55.453 19.861 0.09164 0.439914 -2.871232
2007-04-16 09:38:13 51°14.006 2°55.453 19.8611 0.091743 0.440432 -2.871232
2007-04-16 09:38:18 51°14.006 2°55.453 19.862 0.09164 0.439921 -2.871232
2007-04-16 09:38:23 51°14.005 2°55.452 19.8595 0.09164 0.439921 -2.871232
2007-04-16 09:38:28 51°14.004 2°55.452 19.8667 0.09164 0.439921 -2.871232
2007-04-16 09:38:33 51°14.003 2°55.451 19.873 0.09164 0.439921 -2.871232
2007-04-16 09:38:38 51°14.003 2°55.45 19.8761 0.09164 0.439921 -2.871232
2007-04-16 09:38:43 51°14.002 2°55.45 19.8764 0.09164 0.439929 -2.871232
2007-04-16 09:38:48 51°14.003 2°55.45 19.8768 0.09164 0.439929 -2.871232
2007-04-16 09:38:53 51°14.003 2°55.45 19.8784 0.091743 0.44044 -2.871232
2007-04-16 09:38:58 51°14.003 2°55.45 19.8773 0.091743 0.44044 -2.871232
2007-04-16 09:39:03 51°14.003 2°55.451 19.8789 0.09164 0.439929 -2.871232
2007-04-16 09:39:08 51°14.003 2°55.451 19.8775 0.091743 0.44044 -2.871232
2007-04-16 09:39:13 51°14.003 2°55.451 19.8754 0.091743 0.44044 -2.871232
2007-04-16 09:39:18 51°14.003 2°55.451 19.8757 0.091743 0.440447 -2.871232
2007-04-16 09:39:23 51°14.003 2°55.451 19.8741 0.09164 0.439936 -2.871232
2007-04-16 09:39:28 51°14.003 2°55.451 19.8644 0.09164 0.439936 -2.871232
2007-04-16 09:39:33 51°14.003 2°55.451 19.8701 0.09164 0.439936 -2.871232
2007-04-16 09:39:38 51°14.003 2°55.451 19.868 0.091743 0.440447 -2.871232
2007-04-16 09:39:43 51°14.003 2°55.451 19.8747 0.091743 0.440454 -2.871232
2007-04-16 09:39:48 51°14.003 2°55.451 19.8736 0.09164 0.439943 -2.871232
2007-04-16 09:39:53 51°14.003 2°55.451 19.8772 0.09164 0.439943 -2.871232
2007-04-16 09:39:58 51°14.003 2°55.451 19.875 0.09164 0.439943 -2.871232
2007-04-16 09:40:03 51°14.003 2°55.451 19.8749 0.09164 0.439943 -2.871232
2007-04-16 09:40:08 51°14.003 2°55.451 19.8781 0.09164 0.439951 -2.871232
2007-04-16 09:40:13 51°14.003 2°55.451 19.8786 0.091743 0.440462 -2.871232
2007-04-16 09:40:18 51°14.003 2°55.45 19.8809 0.09164 0.439951 -2.871232
2007-04-16 09:40:23 51°14.003 2°55.45 19.8811 0.091743 0.440462 -2.871232
2007-04-16 09:40:28 51°14.004 2°55.451 19.8676 0.091743 0.440462 -2.871232
2007-04-16 09:40:33 51°14.003 2°55.451 19.8499 0.09164 0.439951 -2.871232
2007-04-16 09:40:38 51°14.003 2°55.451 19.8737 0.09164 0.439958 -2.871232
2007-04-16 09:40:43 51°14.003 2°55.451 19.8668 0.09164 0.439951 -2.871232
2007-04-16 09:40:48 51°14.003 2°55.451 19.8734 0.09164 0.439951 -2.871232
2007-04-16 09:40:54 51°14.003 2°55.451 19.8831 0.09164 0.439958 -2.871232
2007-04-16 09:40:58 51°14.003 2°55.451 19.8876 0.09164 0.439958 -2.871232
2007-04-16 09:41:03 51°14.003 2°55.451 19.8871 0.091743 0.440469 -2.871232
2007-04-16 09:41:08 51°14.003 2°55.451 19.8822 0.09164 0.439958 -2.871232
2007-04-16 09:41:13 51°14.003 2°55.451 19.8775 0.09164 0.439958 -2.871232
2007-04-16 09:41:18 51°14.003 2°55.451 19.883 0.09164 0.439958 -2.871232
2007-04-16 09:41:23 51°14.003 2°55.451 19.8938 0.09164 0.439958 -2.871232
2007-04-16 09:41:28 51°14.003 2°55.451 19.8935 0.09164 0.439958 -2.871232
2007-04-16 09:41:33 51°14.003 2°55.451 19.8935 0.091743 0.440469 -2.871232
2007-04-16 09:41:38 51°14.003 2°55.451 19.8988 0.09164 0.439965 -2.871232
2007-04-16 09:41:43 51°14.003 2°55.451 19.8979 0.09164 0.439965 -2.871232
2007-04-16 09:41:49 51°14.003 2°55.451 19.9006 0.091743 0.440476 -2.871232
2007-04-16 09:41:53 51°14.003 2°55.451 19.8979 0.09164 0.439965 -2.871232
2007-04-16 09:41:58 51°14.003 2°55.45 19.9001 0.09164 0.439965 -2.871232
2007-04-16 09:42:03 51°14.003 2°55.45 19.9015 0.091537 0.439462 -2.871232
2007-04-16 09:42:08 51°14.003 2°55.45 19.9007 0.09164 0.439973 -2.871232
2007-04-16 09:42:13 51°14.003 2°55.45 19.8992 0.09164 0.439973 -2.871232
2007-04-16 09:42:18 51°14.003 2°55.45 19.8978 0.09164 0.439973 -2.871232
2007-04-16 09:42:23 51°14.003 2°55.45 19.8979 0.091743 0.440484 -2.871232
2007-04-16 09:42:28 51°14.003 2°55.45 19.8973 0.091743 0.440484 -2.871232
2007-04-16 09:42:33 51°14.002 2°55.45 19.9014 0.091537 0.439462 -2.871232
2007-04-16 09:42:38 51°14.002 2°55.45 19.9046 0.091743 0.440484 -2.871232
2007-04-16 09:42:43 51°14.002 2°55.45 19.9054 0.09164 0.43998 -2.871232
2007-04-16 09:42:48 51°14.002 2°55.45 19.9063 0.09164 0.43998 -2.871232
2007-04-16 09:42:53 51°14.002 2°55.45 19.9049 0.09164 0.43998 -2.871232
2007-04-16 09:42:58 51°14.002 2°55.45 19.9047 0.09164 0.43998 -2.871232
2007-04-16 09:43:03 51°14.003 2°55.45 19.9005 0.09164 0.43998 -2.871232
2007-04-16 09:43:08 51°14.003 2°55.45 19.9141 0.09164 0.43998 -2.871232
2007-04-16 09:43:13 51°14.003 2°55.45 19.9022 0.09164 0.43998 -2.871232
2007-04-16 09:43:18 51°14.003 2°55.45 19.9095 0.09164 0.43998 -2.871232
2007-04-16 09:43:23 51°14.003 2°55.45 19.9161 0.091743 0.440498 -2.871232
2007-04-16 09:43:28 51°14.003 2°55.45 19.9144 0.091743 0.440498 -2.871232
2007-04-16 09:43:33 51°14.003 2°55.45 19.9133 0.09164 0.439987 -2.871232
2007-04-16 09:43:38 51°14.003 2°55.45 19.9127 0.09164 0.439987 -2.871232
2007-04-16 09:43:43 51°14.003 2°55.45 19.912 0.09164 0.439995 -2.871232
2007-04-16 09:43:48 51°14.003 2°55.45 19.9098 0.09164 0.439987 -2.871232
2007-04-16 09:43:53 51°14.003 2°55.45 19.9105 0.09164 0.439995 -2.871232
2007-04-16 09:43:58 51°14.003 2°55.451 19.9112 0.09164 0.439995 -2.871232
2007-04-16 09:44:04 51°14.003 2°55.451 19.9146 0.09164 0.439995 -2.871232
2007-04-16 09:44:08 51°14.003 2°55.451 19.9168 0.09164 0.439995 -2.871232
2007-04-16 09:44:13 51°14.004 2°55.451 19.9225 0.09164 0.439995 -2.871232
2007-04-16 09:44:18 51°14.004 2°55.452 19.9187 0.09164 0.440002 -2.871232
2007-04-16 09:44:23 51°14.005 2°55.452 19.9272 0.09164 0.439995 -2.871232
2007-04-16 09:44:29 51°14.005 2°55.452 19.9262 0.09164 0.439995 -2.871232
2007-04-16 09:44:33 51°14.005 2°55.452 19.9256 0.091537 0.439484 -2.871232
2007-04-16 09:44:38 51°14.005 2°55.452 19.9248 0.09164 0.440002 -2.871232
2007-04-16 09:44:43 51°14.005 2°55.452 19.915 0.09164 0.440002 -2.871232
2007-04-16 09:44:48 51°14.005 2°55.452 19.9066 0.091743 0.440513 -2.871232
2007-04-16 09:44:53 51°14.005 2°55.452 19.9151 0.09164 0.440002 -2.871232
2007-04-16 09:44:58 51°14.005 2°55.452 19.9225 0.09164 0.440002 -2.871232
2007-04-16 09:45:03 51°14.005 2°55.452 19.9205 0.09164 0.440002 -2.871232
2007-04-16 09:45:08 51°14.005 2°55.452 19.9209 0.09164 0.440002 -2.871232
2007-04-16 09:45:13 51°14.005 2°55.452 19.9181 0.09164 0.440009 -2.871232
2007-04-16 09:45:18 51°14.005 2°55.452 19.9127 0.09164 0.440009 -2.871232
2007-04-16 09:45:23 51°14.005 2°55.452 19.9012 0.09164 0.440002 -2.871232
2007-04-16 09:45:28 51°14.005 2°55.452 19.9251 0.09164 0.440002 -2.871232
2007-04-16 09:45:33 51°14.005 2°55.452 19.9252 0.09164 0.440009 -2.871232
2007-04-16 09:45:38 51°14.005 2°55.452 19.925 0.09164 0.440009 -2.871232